<?xml version="1.0" encoding="UTF-8" standalone="no" ?>
<gpx xmlns="http://www.topografix.com/GPX/1/1" xmlns:xsi="http://www.w3.org/2001/XMLSchema-instance" xsi:schemaLocation="http://www.topografix.com/GPX/1/1 http://www.topografix.com/GPX/1/1/gpx.xsd" version="1.1" creator="VisuGPX - https://www.visugpx.com">
  <metadata>
    <name>Genainville_Roche-Guyon</name>
    <desc><![CDATA[

]]></desc>
  </metadata>
  <trk>
    <name><![CDATA[Genainville_Roche-Guyon]]></name>
    <extensions>
      <line xmlns="http://www.topografix.com/GPX/gpx_style/0/2">
        <color>FF0000</color>
        <width>4</width>
      </line>
    </extensions>
    <trkseg>
      <trkpt lat="49.12591" lon="1.75374">
        <ele>-9.48</ele>
        <time>2015-11-01T08:35:55Z</time>
      </trkpt>
      <trkpt lat="49.12586" lon="1.75377">
        <ele>-9</ele>
        <time>2015-11-01T08:35:59Z</time>
      </trkpt>
      <trkpt lat="49.1257" lon="1.75396">
        <ele>-8.51</ele>
        <time>2015-11-01T08:36:17Z</time>
      </trkpt>
      <trkpt lat="49.12555" lon="1.75416">
        <ele>-7.55</ele>
        <time>2015-11-01T08:36:33Z</time>
      </trkpt>
      <trkpt lat="49.12551" lon="1.75422">
        <ele>-7.55</ele>
        <time>2015-11-01T08:36:37Z</time>
      </trkpt>
      <trkpt lat="49.12547" lon="1.75428">
        <ele>-6.59</ele>
        <time>2015-11-01T08:36:55Z</time>
      </trkpt>
      <trkpt lat="49.12543" lon="1.75443">
        <ele>-5.63</ele>
        <time>2015-11-01T08:37:09Z</time>
      </trkpt>
      <trkpt lat="49.12539" lon="1.75454">
        <ele>-5.15</ele>
        <time>2015-11-01T08:37:15Z</time>
      </trkpt>
      <trkpt lat="49.12538" lon="1.75464">
        <ele>-4.67</ele>
        <time>2015-11-01T08:37:21Z</time>
      </trkpt>
      <trkpt lat="49.12535" lon="1.75471">
        <ele>-4.19</ele>
        <time>2015-11-01T08:37:25Z</time>
      </trkpt>
      <trkpt lat="49.12532" lon="1.75498">
        <ele>-3.71</ele>
        <time>2015-11-01T08:37:40Z</time>
      </trkpt>
      <trkpt lat="49.12531" lon="1.75511">
        <ele>-2.75</ele>
        <time>2015-11-01T08:37:47Z</time>
      </trkpt>
      <trkpt lat="49.1253" lon="1.75527">
        <ele>-2.27</ele>
        <time>2015-11-01T08:37:56Z</time>
      </trkpt>
      <trkpt lat="49.12527" lon="1.75559">
        <ele>-0.82</ele>
        <time>2015-11-01T08:38:12Z</time>
      </trkpt>
      <trkpt lat="49.12527" lon="1.75563">
        <ele>-0.82</ele>
        <time>2015-11-01T08:38:14Z</time>
      </trkpt>
      <trkpt lat="49.12523" lon="1.75591">
        <ele>0.62</ele>
        <time>2015-11-01T08:38:30Z</time>
      </trkpt>
      <trkpt lat="49.12513" lon="1.75622">
        <ele>2.06</ele>
        <time>2015-11-01T08:38:47Z</time>
      </trkpt>
      <trkpt lat="49.12498" lon="1.75642">
        <ele>3.02</ele>
        <time>2015-11-01T08:39:03Z</time>
      </trkpt>
      <trkpt lat="49.12486" lon="1.75655">
        <ele>3.98</ele>
        <time>2015-11-01T08:39:16Z</time>
      </trkpt>
      <trkpt lat="49.12487" lon="1.75653">
        <ele>4.46</ele>
        <time>2015-11-01T08:39:33Z</time>
      </trkpt>
      <trkpt lat="49.12487" lon="1.75653">
        <ele>5.91</ele>
        <time>2015-11-01T08:40:05Z</time>
      </trkpt>
      <trkpt lat="49.12488" lon="1.75649">
        <ele>6.87</ele>
        <time>2015-11-01T08:40:29Z</time>
      </trkpt>
      <trkpt lat="49.12478" lon="1.75665">
        <ele>8.31</ele>
        <time>2015-11-01T08:40:41Z</time>
      </trkpt>
      <trkpt lat="49.12475" lon="1.7567">
        <ele>8.79</ele>
        <time>2015-11-01T08:40:46Z</time>
      </trkpt>
      <trkpt lat="49.12471" lon="1.75673">
        <ele>8.79</ele>
        <time>2015-11-01T08:40:50Z</time>
      </trkpt>
      <trkpt lat="49.12467" lon="1.75678">
        <ele>9.27</ele>
        <time>2015-11-01T08:40:55Z</time>
      </trkpt>
      <trkpt lat="49.12452" lon="1.75693">
        <ele>10.71</ele>
        <time>2015-11-01T08:41:10Z</time>
      </trkpt>
      <trkpt lat="49.12425" lon="1.75701">
        <ele>12.63</ele>
        <time>2015-11-01T08:41:31Z</time>
      </trkpt>
      <trkpt lat="49.12408" lon="1.75715">
        <ele>14.08</ele>
        <time>2015-11-01T08:41:48Z</time>
      </trkpt>
      <trkpt lat="49.12386" lon="1.75725">
        <ele>16</ele>
        <time>2015-11-01T08:42:07Z</time>
      </trkpt>
      <trkpt lat="49.12374" lon="1.75738">
        <ele>17.92</ele>
        <time>2015-11-01T08:42:22Z</time>
      </trkpt>
      <trkpt lat="49.12357" lon="1.75751">
        <ele>19.36</ele>
        <time>2015-11-01T08:42:38Z</time>
      </trkpt>
      <trkpt lat="49.12354" lon="1.75754">
        <ele>20.32</ele>
        <time>2015-11-01T08:42:42Z</time>
      </trkpt>
      <trkpt lat="49.12349" lon="1.75759">
        <ele>20.32</ele>
        <time>2015-11-01T08:42:47Z</time>
      </trkpt>
      <trkpt lat="49.12332" lon="1.75778">
        <ele>21.77</ele>
        <time>2015-11-01T08:43:03Z</time>
      </trkpt>
      <trkpt lat="49.12319" lon="1.75795">
        <ele>23.21</ele>
        <time>2015-11-01T08:43:17Z</time>
      </trkpt>
      <trkpt lat="49.12307" lon="1.75805">
        <ele>24.17</ele>
        <time>2015-11-01T08:43:28Z</time>
      </trkpt>
      <trkpt lat="49.12287" lon="1.7582">
        <ele>25.13</ele>
        <time>2015-11-01T08:43:47Z</time>
      </trkpt>
      <trkpt lat="49.12274" lon="1.75832">
        <ele>26.57</ele>
        <time>2015-11-01T08:44:01Z</time>
      </trkpt>
      <trkpt lat="49.12263" lon="1.75854">
        <ele>27.05</ele>
        <time>2015-11-01T08:44:17Z</time>
      </trkpt>
      <trkpt lat="49.1226" lon="1.75867">
        <ele>27.53</ele>
        <time>2015-11-01T08:44:24Z</time>
      </trkpt>
      <trkpt lat="49.12259" lon="1.75883">
        <ele>28.5</ele>
        <time>2015-11-01T08:44:32Z</time>
      </trkpt>
      <trkpt lat="49.12252" lon="1.75901">
        <ele>29.94</ele>
        <time>2015-11-01T08:44:44Z</time>
      </trkpt>
      <trkpt lat="49.12251" lon="1.75909">
        <ele>30.42</ele>
        <time>2015-11-01T08:44:48Z</time>
      </trkpt>
      <trkpt lat="49.12244" lon="1.75928">
        <ele>31.86</ele>
        <time>2015-11-01T08:45:00Z</time>
      </trkpt>
      <trkpt lat="49.1224" lon="1.75944">
        <ele>32.82</ele>
        <time>2015-11-01T08:45:11Z</time>
      </trkpt>
      <trkpt lat="49.12234" lon="1.75954">
        <ele>33.78</ele>
        <time>2015-11-01T08:45:18Z</time>
      </trkpt>
      <trkpt lat="49.12232" lon="1.7596">
        <ele>34.26</ele>
        <time>2015-11-01T08:45:22Z</time>
      </trkpt>
      <trkpt lat="49.12223" lon="1.75984">
        <ele>35.71</ele>
        <time>2015-11-01T08:45:37Z</time>
      </trkpt>
      <trkpt lat="49.12213" lon="1.76003">
        <ele>37.15</ele>
        <time>2015-11-01T08:45:51Z</time>
      </trkpt>
      <trkpt lat="49.12205" lon="1.76028">
        <ele>38.59</ele>
        <time>2015-11-01T08:46:07Z</time>
      </trkpt>
      <trkpt lat="49.12204" lon="1.76032">
        <ele>39.07</ele>
        <time>2015-11-01T08:46:09Z</time>
      </trkpt>
      <trkpt lat="49.12196" lon="1.76051">
        <ele>40.03</ele>
        <time>2015-11-01T08:46:22Z</time>
      </trkpt>
      <trkpt lat="49.12189" lon="1.76069">
        <ele>40.99</ele>
        <time>2015-11-01T08:46:34Z</time>
      </trkpt>
      <trkpt lat="49.12186" lon="1.76075">
        <ele>41.95</ele>
        <time>2015-11-01T08:46:39Z</time>
      </trkpt>
      <trkpt lat="49.12177" lon="1.76098">
        <ele>42.92</ele>
        <time>2015-11-01T08:46:53Z</time>
      </trkpt>
      <trkpt lat="49.12174" lon="1.76114">
        <ele>43.4</ele>
        <time>2015-11-01T08:47:02Z</time>
      </trkpt>
      <trkpt lat="49.12168" lon="1.76126">
        <ele>43.88</ele>
        <time>2015-11-01T08:47:09Z</time>
      </trkpt>
      <trkpt lat="49.12165" lon="1.76156">
        <ele>44.84</ele>
        <time>2015-11-01T08:47:26Z</time>
      </trkpt>
      <trkpt lat="49.12165" lon="1.7618">
        <ele>45.8</ele>
        <time>2015-11-01T08:47:40Z</time>
      </trkpt>
      <trkpt lat="49.12165" lon="1.76181">
        <ele>46.28</ele>
        <time>2015-11-01T08:47:41Z</time>
      </trkpt>
      <trkpt lat="49.12164" lon="1.76189">
        <ele>46.28</ele>
        <time>2015-11-01T08:47:45Z</time>
      </trkpt>
      <trkpt lat="49.12164" lon="1.762">
        <ele>46.76</ele>
        <time>2015-11-01T08:47:50Z</time>
      </trkpt>
      <trkpt lat="49.12165" lon="1.76221">
        <ele>47.24</ele>
        <time>2015-11-01T08:48:02Z</time>
      </trkpt>
      <trkpt lat="49.12168" lon="1.76244">
        <ele>48.2</ele>
        <time>2015-11-01T08:48:16Z</time>
      </trkpt>
      <trkpt lat="49.12169" lon="1.7627">
        <ele>48.68</ele>
        <time>2015-11-01T08:48:30Z</time>
      </trkpt>
      <trkpt lat="49.12173" lon="1.76296">
        <ele>50.61</ele>
        <time>2015-11-01T08:48:44Z</time>
      </trkpt>
      <trkpt lat="49.12177" lon="1.7632">
        <ele>51.57</ele>
        <time>2015-11-01T08:48:57Z</time>
      </trkpt>
      <trkpt lat="49.12177" lon="1.76323">
        <ele>52.05</ele>
        <time>2015-11-01T08:48:59Z</time>
      </trkpt>
      <trkpt lat="49.12184" lon="1.76351">
        <ele>53.97</ele>
        <time>2015-11-01T08:49:17Z</time>
      </trkpt>
      <trkpt lat="49.12187" lon="1.7636">
        <ele>54.93</ele>
        <time>2015-11-01T08:49:24Z</time>
      </trkpt>
      <trkpt lat="49.12196" lon="1.7638">
        <ele>57.82</ele>
        <time>2015-11-01T08:49:38Z</time>
      </trkpt>
      <trkpt lat="49.12207" lon="1.764">
        <ele>59.74</ele>
        <time>2015-11-01T08:49:54Z</time>
      </trkpt>
      <trkpt lat="49.12213" lon="1.76421">
        <ele>61.18</ele>
        <time>2015-11-01T08:50:08Z</time>
      </trkpt>
      <trkpt lat="49.12214" lon="1.76426">
        <ele>61.66</ele>
        <time>2015-11-01T08:50:12Z</time>
      </trkpt>
      <trkpt lat="49.12215" lon="1.76445">
        <ele>62.62</ele>
        <time>2015-11-01T08:50:25Z</time>
      </trkpt>
      <trkpt lat="49.12215" lon="1.76471">
        <ele>63.1</ele>
        <time>2015-11-01T08:50:39Z</time>
      </trkpt>
      <trkpt lat="49.12215" lon="1.76478">
        <ele>63.58</ele>
        <time>2015-11-01T08:50:44Z</time>
      </trkpt>
      <trkpt lat="49.12215" lon="1.76509">
        <ele>63.58</ele>
        <time>2015-11-01T08:51:01Z</time>
      </trkpt>
      <trkpt lat="49.12214" lon="1.7654">
        <ele>63.58</ele>
        <time>2015-11-01T08:51:17Z</time>
      </trkpt>
      <trkpt lat="49.12213" lon="1.76556">
        <ele>63.58</ele>
        <time>2015-11-01T08:51:26Z</time>
      </trkpt>
      <trkpt lat="49.12214" lon="1.76559">
        <ele>63.58</ele>
        <time>2015-11-01T08:51:28Z</time>
      </trkpt>
      <trkpt lat="49.12212" lon="1.76586">
        <ele>64.07</ele>
        <time>2015-11-01T08:51:43Z</time>
      </trkpt>
      <trkpt lat="49.1221" lon="1.76613">
        <ele>64.07</ele>
        <time>2015-11-01T08:51:59Z</time>
      </trkpt>
      <trkpt lat="49.12208" lon="1.76645">
        <ele>64.07</ele>
        <time>2015-11-01T08:52:16Z</time>
      </trkpt>
      <trkpt lat="49.12207" lon="1.76675">
        <ele>64.55</ele>
        <time>2015-11-01T08:52:33Z</time>
      </trkpt>
      <trkpt lat="49.12205" lon="1.76702">
        <ele>64.55</ele>
        <time>2015-11-01T08:52:48Z</time>
      </trkpt>
      <trkpt lat="49.12206" lon="1.76729">
        <ele>65.03</ele>
        <time>2015-11-01T08:53:04Z</time>
      </trkpt>
      <trkpt lat="49.12207" lon="1.76758">
        <ele>65.03</ele>
        <time>2015-11-01T08:53:20Z</time>
      </trkpt>
      <trkpt lat="49.1221" lon="1.76783">
        <ele>65.99</ele>
        <time>2015-11-01T08:53:34Z</time>
      </trkpt>
      <trkpt lat="49.12211" lon="1.76806">
        <ele>66.47</ele>
        <time>2015-11-01T08:53:48Z</time>
      </trkpt>
      <trkpt lat="49.12211" lon="1.76815">
        <ele>65.99</ele>
        <time>2015-11-01T08:53:54Z</time>
      </trkpt>
      <trkpt lat="49.1221" lon="1.7682">
        <ele>65.99</ele>
        <time>2015-11-01T08:53:57Z</time>
      </trkpt>
      <trkpt lat="49.12207" lon="1.76827">
        <ele>65.51</ele>
        <time>2015-11-01T08:54:01Z</time>
      </trkpt>
      <trkpt lat="49.12201" lon="1.7683">
        <ele>65.03</ele>
        <time>2015-11-01T08:54:06Z</time>
      </trkpt>
      <trkpt lat="49.12191" lon="1.76841">
        <ele>64.55</ele>
        <time>2015-11-01T08:54:21Z</time>
      </trkpt>
      <trkpt lat="49.12184" lon="1.76847">
        <ele>64.55</ele>
        <time>2015-11-01T08:54:42Z</time>
      </trkpt>
      <trkpt lat="49.12171" lon="1.7686">
        <ele>63.1</ele>
        <time>2015-11-01T08:54:58Z</time>
      </trkpt>
      <trkpt lat="49.12161" lon="1.76871">
        <ele>61.66</ele>
        <time>2015-11-01T08:55:12Z</time>
      </trkpt>
      <trkpt lat="49.1215" lon="1.76885">
        <ele>60.7</ele>
        <time>2015-11-01T08:55:26Z</time>
      </trkpt>
      <trkpt lat="49.12142" lon="1.76905">
        <ele>59.74</ele>
        <time>2015-11-01T08:55:41Z</time>
      </trkpt>
      <trkpt lat="49.12134" lon="1.76922">
        <ele>58.78</ele>
        <time>2015-11-01T08:55:55Z</time>
      </trkpt>
      <trkpt lat="49.12126" lon="1.76937">
        <ele>57.82</ele>
        <time>2015-11-01T08:56:09Z</time>
      </trkpt>
      <trkpt lat="49.12111" lon="1.7695">
        <ele>56.37</ele>
        <time>2015-11-01T08:56:27Z</time>
      </trkpt>
      <trkpt lat="49.121" lon="1.76954">
        <ele>54.45</ele>
        <time>2015-11-01T08:56:42Z</time>
      </trkpt>
      <trkpt lat="49.12101" lon="1.76956">
        <ele>54.93</ele>
        <time>2015-11-01T08:57:03Z</time>
      </trkpt>
      <trkpt lat="49.12099" lon="1.76953">
        <ele>55.41</ele>
        <time>2015-11-01T08:57:24Z</time>
      </trkpt>
      <trkpt lat="49.12097" lon="1.76957">
        <ele>55.89</ele>
        <time>2015-11-01T08:57:42Z</time>
      </trkpt>
      <trkpt lat="49.12082" lon="1.76982">
        <ele>56.86</ele>
        <time>2015-11-01T08:58:56Z</time>
      </trkpt>
      <trkpt lat="49.12067" lon="1.77005">
        <ele>57.82</ele>
        <time>2015-11-01T08:59:24Z</time>
      </trkpt>
      <trkpt lat="49.1206" lon="1.77025">
        <ele>64.07</ele>
        <time>2015-11-01T09:03:43Z</time>
      </trkpt>
      <trkpt lat="49.12049" lon="1.77045">
        <ele>65.51</ele>
        <time>2015-11-01T09:05:55Z</time>
      </trkpt>
      <trkpt lat="49.12045" lon="1.77049">
        <ele>65.03</ele>
        <time>2015-11-01T09:06:00Z</time>
      </trkpt>
      <trkpt lat="49.12041" lon="1.77061">
        <ele>65.03</ele>
        <time>2015-11-01T09:06:10Z</time>
      </trkpt>
      <trkpt lat="49.12044" lon="1.77118">
        <ele>77.04</ele>
        <time>2015-11-01T09:20:17Z</time>
      </trkpt>
      <trkpt lat="49.12052" lon="1.77124">
        <ele>78</ele>
        <time>2015-11-01T09:21:20Z</time>
      </trkpt>
      <trkpt lat="49.12029" lon="1.77162">
        <ele>83.77</ele>
        <time>2015-11-01T09:27:41Z</time>
      </trkpt>
      <trkpt lat="49.12058" lon="1.7699">
        <ele>98.19</ele>
        <time>2015-11-01T10:14:13Z</time>
      </trkpt>
      <trkpt lat="49.12081" lon="1.76971">
        <ele>99.15</ele>
        <time>2015-11-01T10:16:47Z</time>
      </trkpt>
      <trkpt lat="49.12101" lon="1.76955">
        <ele>102.04</ele>
        <time>2015-11-01T10:20:53Z</time>
      </trkpt>
      <trkpt lat="49.12099" lon="1.76954">
        <ele>102.52</ele>
        <time>2015-11-01T10:21:39Z</time>
      </trkpt>
      <trkpt lat="49.12098" lon="1.76989">
        <ele>103</ele>
        <time>2015-11-01T10:25:13Z</time>
      </trkpt>
      <trkpt lat="49.12099" lon="1.76984">
        <ele>103</ele>
        <time>2015-11-01T10:25:36Z</time>
      </trkpt>
      <trkpt lat="49.12095" lon="1.77011">
        <ele>103</ele>
        <time>2015-11-01T10:25:51Z</time>
      </trkpt>
      <trkpt lat="49.12095" lon="1.77033">
        <ele>103</ele>
        <time>2015-11-01T10:26:05Z</time>
      </trkpt>
      <trkpt lat="49.12094" lon="1.77061">
        <ele>103.48</ele>
        <time>2015-11-01T10:26:22Z</time>
      </trkpt>
      <trkpt lat="49.12089" lon="1.77083">
        <ele>103.48</ele>
        <time>2015-11-01T10:26:35Z</time>
      </trkpt>
      <trkpt lat="49.12082" lon="1.77108">
        <ele>103.96</ele>
        <time>2015-11-01T10:26:50Z</time>
      </trkpt>
      <trkpt lat="49.12077" lon="1.77129">
        <ele>103.48</ele>
        <time>2015-11-01T10:27:06Z</time>
      </trkpt>
      <trkpt lat="49.12073" lon="1.77144">
        <ele>103.48</ele>
        <time>2015-11-01T10:27:19Z</time>
      </trkpt>
      <trkpt lat="49.12067" lon="1.77168">
        <ele>103.96</ele>
        <time>2015-11-01T10:27:34Z</time>
      </trkpt>
      <trkpt lat="49.12061" lon="1.77189">
        <ele>103.96</ele>
        <time>2015-11-01T10:27:49Z</time>
      </trkpt>
      <trkpt lat="49.12053" lon="1.77212">
        <ele>103.96</ele>
        <time>2015-11-01T10:28:03Z</time>
      </trkpt>
      <trkpt lat="49.12042" lon="1.77234">
        <ele>104.44</ele>
        <time>2015-11-01T10:28:19Z</time>
      </trkpt>
      <trkpt lat="49.12035" lon="1.77252">
        <ele>104.92</ele>
        <time>2015-11-01T10:28:36Z</time>
      </trkpt>
      <trkpt lat="49.12029" lon="1.77268">
        <ele>104.44</ele>
        <time>2015-11-01T10:28:50Z</time>
      </trkpt>
      <trkpt lat="49.12021" lon="1.77296">
        <ele>104.44</ele>
        <time>2015-11-01T10:29:07Z</time>
      </trkpt>
      <trkpt lat="49.12015" lon="1.77317">
        <ele>104.92</ele>
        <time>2015-11-01T10:29:22Z</time>
      </trkpt>
      <trkpt lat="49.12002" lon="1.77338">
        <ele>104.92</ele>
        <time>2015-11-01T10:29:40Z</time>
      </trkpt>
      <trkpt lat="49.11987" lon="1.77357">
        <ele>104.92</ele>
        <time>2015-11-01T10:29:59Z</time>
      </trkpt>
      <trkpt lat="49.11972" lon="1.77377">
        <ele>105.4</ele>
        <time>2015-11-01T10:30:16Z</time>
      </trkpt>
      <trkpt lat="49.11961" lon="1.77395">
        <ele>105.88</ele>
        <time>2015-11-01T10:30:29Z</time>
      </trkpt>
      <trkpt lat="49.11956" lon="1.77412">
        <ele>105.88</ele>
        <time>2015-11-01T10:30:43Z</time>
      </trkpt>
      <trkpt lat="49.11947" lon="1.77437">
        <ele>106.84</ele>
        <time>2015-11-01T10:30:58Z</time>
      </trkpt>
      <trkpt lat="49.1194" lon="1.77461">
        <ele>107.81</ele>
        <time>2015-11-01T10:31:15Z</time>
      </trkpt>
      <trkpt lat="49.11934" lon="1.77484">
        <ele>108.29</ele>
        <time>2015-11-01T10:31:31Z</time>
      </trkpt>
      <trkpt lat="49.11932" lon="1.77502">
        <ele>108.29</ele>
        <time>2015-11-01T10:31:45Z</time>
      </trkpt>
      <trkpt lat="49.1193" lon="1.77529">
        <ele>109.25</ele>
        <time>2015-11-01T10:32:01Z</time>
      </trkpt>
      <trkpt lat="49.1193" lon="1.77549">
        <ele>109.25</ele>
        <time>2015-11-01T10:32:11Z</time>
      </trkpt>
      <trkpt lat="49.11929" lon="1.7756">
        <ele>109.25</ele>
        <time>2015-11-01T10:32:17Z</time>
      </trkpt>
      <trkpt lat="49.11926" lon="1.77566">
        <ele>109.25</ele>
        <time>2015-11-01T10:32:21Z</time>
      </trkpt>
      <trkpt lat="49.11919" lon="1.77577">
        <ele>109.25</ele>
        <time>2015-11-01T10:32:32Z</time>
      </trkpt>
      <trkpt lat="49.11903" lon="1.77596">
        <ele>109.73</ele>
        <time>2015-11-01T10:32:49Z</time>
      </trkpt>
      <trkpt lat="49.11888" lon="1.77608">
        <ele>110.21</ele>
        <time>2015-11-01T10:33:05Z</time>
      </trkpt>
      <trkpt lat="49.11887" lon="1.7761">
        <ele>110.21</ele>
        <time>2015-11-01T10:33:07Z</time>
      </trkpt>
      <trkpt lat="49.11874" lon="1.77624">
        <ele>110.69</ele>
        <time>2015-11-01T10:33:22Z</time>
      </trkpt>
      <trkpt lat="49.11859" lon="1.77638">
        <ele>111.17</ele>
        <time>2015-11-01T10:33:35Z</time>
      </trkpt>
      <trkpt lat="49.11857" lon="1.7764">
        <ele>111.65</ele>
        <time>2015-11-01T10:33:37Z</time>
      </trkpt>
      <trkpt lat="49.1185" lon="1.77652">
        <ele>112.13</ele>
        <time>2015-11-01T10:33:47Z</time>
      </trkpt>
      <trkpt lat="49.11844" lon="1.77674">
        <ele>112.61</ele>
        <time>2015-11-01T10:34:02Z</time>
      </trkpt>
      <trkpt lat="49.11836" lon="1.77704">
        <ele>113.57</ele>
        <time>2015-11-01T10:34:19Z</time>
      </trkpt>
      <trkpt lat="49.1183" lon="1.77726">
        <ele>114.05</ele>
        <time>2015-11-01T10:34:34Z</time>
      </trkpt>
      <trkpt lat="49.11823" lon="1.77748">
        <ele>114.53</ele>
        <time>2015-11-01T10:34:50Z</time>
      </trkpt>
      <trkpt lat="49.11821" lon="1.77752">
        <ele>115.01</ele>
        <time>2015-11-01T10:34:53Z</time>
      </trkpt>
      <trkpt lat="49.11815" lon="1.77786">
        <ele>115.01</ele>
        <time>2015-11-01T10:35:10Z</time>
      </trkpt>
      <trkpt lat="49.1181" lon="1.77815">
        <ele>115.5</ele>
        <time>2015-11-01T10:35:25Z</time>
      </trkpt>
      <trkpt lat="49.11808" lon="1.7784">
        <ele>115.5</ele>
        <time>2015-11-01T10:35:39Z</time>
      </trkpt>
      <trkpt lat="49.11804" lon="1.77864">
        <ele>115.98</ele>
        <time>2015-11-01T10:35:55Z</time>
      </trkpt>
      <trkpt lat="49.11803" lon="1.7789">
        <ele>116.46</ele>
        <time>2015-11-01T10:36:10Z</time>
      </trkpt>
      <trkpt lat="49.11798" lon="1.77919">
        <ele>116.46</ele>
        <time>2015-11-01T10:36:26Z</time>
      </trkpt>
      <trkpt lat="49.11795" lon="1.77944">
        <ele>116.46</ele>
        <time>2015-11-01T10:36:42Z</time>
      </trkpt>
      <trkpt lat="49.11792" lon="1.7797">
        <ele>116.46</ele>
        <time>2015-11-01T10:36:56Z</time>
      </trkpt>
      <trkpt lat="49.11785" lon="1.77981">
        <ele>115.98</ele>
        <time>2015-11-01T10:37:03Z</time>
      </trkpt>
      <trkpt lat="49.11779" lon="1.77981">
        <ele>115.5</ele>
        <time>2015-11-01T10:37:19Z</time>
      </trkpt>
      <trkpt lat="49.11774" lon="1.77978">
        <ele>115.5</ele>
        <time>2015-11-01T10:37:34Z</time>
      </trkpt>
      <trkpt lat="49.11762" lon="1.77973">
        <ele>115.5</ele>
        <time>2015-11-01T10:37:50Z</time>
      </trkpt>
      <trkpt lat="49.11738" lon="1.77962">
        <ele>115.5</ele>
        <time>2015-11-01T10:38:08Z</time>
      </trkpt>
      <trkpt lat="49.1173" lon="1.77959">
        <ele>116.46</ele>
        <time>2015-11-01T10:38:17Z</time>
      </trkpt>
      <trkpt lat="49.11722" lon="1.77959">
        <ele>116.46</ele>
        <time>2015-11-01T10:38:25Z</time>
      </trkpt>
      <trkpt lat="49.11706" lon="1.77964">
        <ele>116.46</ele>
        <time>2015-11-01T10:38:39Z</time>
      </trkpt>
      <trkpt lat="49.11694" lon="1.77964">
        <ele>116.94</ele>
        <time>2015-11-01T10:38:53Z</time>
      </trkpt>
      <trkpt lat="49.11692" lon="1.77963">
        <ele>116.94</ele>
        <time>2015-11-01T10:38:55Z</time>
      </trkpt>
      <trkpt lat="49.11684" lon="1.77962">
        <ele>117.42</ele>
        <time>2015-11-01T10:39:04Z</time>
      </trkpt>
      <trkpt lat="49.1168" lon="1.77962">
        <ele>117.42</ele>
        <time>2015-11-01T10:39:08Z</time>
      </trkpt>
      <trkpt lat="49.11668" lon="1.77959">
        <ele>117.9</ele>
        <time>2015-11-01T10:39:19Z</time>
      </trkpt>
      <trkpt lat="49.11665" lon="1.77959">
        <ele>117.9</ele>
        <time>2015-11-01T10:39:22Z</time>
      </trkpt>
      <trkpt lat="49.11649" lon="1.77958">
        <ele>118.38</ele>
        <time>2015-11-01T10:39:36Z</time>
      </trkpt>
      <trkpt lat="49.11644" lon="1.77957">
        <ele>118.38</ele>
        <time>2015-11-01T10:39:41Z</time>
      </trkpt>
      <trkpt lat="49.1163" lon="1.77959">
        <ele>118.86</ele>
        <time>2015-11-01T10:39:54Z</time>
      </trkpt>
      <trkpt lat="49.11625" lon="1.77959">
        <ele>118.86</ele>
        <time>2015-11-01T10:39:59Z</time>
      </trkpt>
      <trkpt lat="49.11609" lon="1.77961">
        <ele>119.34</ele>
        <time>2015-11-01T10:40:14Z</time>
      </trkpt>
      <trkpt lat="49.11607" lon="1.77962">
        <ele>119.34</ele>
        <time>2015-11-01T10:40:16Z</time>
      </trkpt>
      <trkpt lat="49.11603" lon="1.77961">
        <ele>119.34</ele>
        <time>2015-11-01T10:40:20Z</time>
      </trkpt>
      <trkpt lat="49.11586" lon="1.77964">
        <ele>119.82</ele>
        <time>2015-11-01T10:40:35Z</time>
      </trkpt>
      <trkpt lat="49.11573" lon="1.77965">
        <ele>120.3</ele>
        <time>2015-11-01T10:40:48Z</time>
      </trkpt>
      <trkpt lat="49.11559" lon="1.77966">
        <ele>120.3</ele>
        <time>2015-11-01T10:41:02Z</time>
      </trkpt>
      <trkpt lat="49.11551" lon="1.77967">
        <ele>120.78</ele>
        <time>2015-11-01T10:41:09Z</time>
      </trkpt>
      <trkpt lat="49.11547" lon="1.77967">
        <ele>120.78</ele>
        <time>2015-11-01T10:41:13Z</time>
      </trkpt>
      <trkpt lat="49.11534" lon="1.77967">
        <ele>121.26</ele>
        <time>2015-11-01T10:41:26Z</time>
      </trkpt>
      <trkpt lat="49.11528" lon="1.77967">
        <ele>121.26</ele>
        <time>2015-11-01T10:41:33Z</time>
      </trkpt>
      <trkpt lat="49.11517" lon="1.77967">
        <ele>122.22</ele>
        <time>2015-11-01T10:41:44Z</time>
      </trkpt>
      <trkpt lat="49.11504" lon="1.77965">
        <ele>123.19</ele>
        <time>2015-11-01T10:41:57Z</time>
      </trkpt>
      <trkpt lat="49.11503" lon="1.77965">
        <ele>123.19</ele>
        <time>2015-11-01T10:41:58Z</time>
      </trkpt>
      <trkpt lat="49.11499" lon="1.77964">
        <ele>123.67</ele>
        <time>2015-11-01T10:42:03Z</time>
      </trkpt>
      <trkpt lat="49.11482" lon="1.77963">
        <ele>123.67</ele>
        <time>2015-11-01T10:42:19Z</time>
      </trkpt>
      <trkpt lat="49.11477" lon="1.77962">
        <ele>124.15</ele>
        <time>2015-11-01T10:42:24Z</time>
      </trkpt>
      <trkpt lat="49.11462" lon="1.77962">
        <ele>124.15</ele>
        <time>2015-11-01T10:42:39Z</time>
      </trkpt>
      <trkpt lat="49.11448" lon="1.77961">
        <ele>124.15</ele>
        <time>2015-11-01T10:42:52Z</time>
      </trkpt>
      <trkpt lat="49.1144" lon="1.77959">
        <ele>124.63</ele>
        <time>2015-11-01T10:43:01Z</time>
      </trkpt>
      <trkpt lat="49.11431" lon="1.77958">
        <ele>124.63</ele>
        <time>2015-11-01T10:43:09Z</time>
      </trkpt>
      <trkpt lat="49.11416" lon="1.77955">
        <ele>125.11</ele>
        <time>2015-11-01T10:43:23Z</time>
      </trkpt>
      <trkpt lat="49.11411" lon="1.77954">
        <ele>124.63</ele>
        <time>2015-11-01T10:43:28Z</time>
      </trkpt>
      <trkpt lat="49.11407" lon="1.77953">
        <ele>125.11</ele>
        <time>2015-11-01T10:43:33Z</time>
      </trkpt>
      <trkpt lat="49.11396" lon="1.7795">
        <ele>125.11</ele>
        <time>2015-11-01T10:43:45Z</time>
      </trkpt>
      <trkpt lat="49.11389" lon="1.77947">
        <ele>125.59</ele>
        <time>2015-11-01T10:43:53Z</time>
      </trkpt>
      <trkpt lat="49.11377" lon="1.7794">
        <ele>126.07</ele>
        <time>2015-11-01T10:44:06Z</time>
      </trkpt>
      <trkpt lat="49.11364" lon="1.77933">
        <ele>126.55</ele>
        <time>2015-11-01T10:44:20Z</time>
      </trkpt>
      <trkpt lat="49.11353" lon="1.77928">
        <ele>127.03</ele>
        <time>2015-11-01T10:44:32Z</time>
      </trkpt>
      <trkpt lat="49.11344" lon="1.77923">
        <ele>127.51</ele>
        <time>2015-11-01T10:44:42Z</time>
      </trkpt>
      <trkpt lat="49.11328" lon="1.77916">
        <ele>127.51</ele>
        <time>2015-11-01T10:44:57Z</time>
      </trkpt>
      <trkpt lat="49.11325" lon="1.77916">
        <ele>127.99</ele>
        <time>2015-11-01T10:45:00Z</time>
      </trkpt>
      <trkpt lat="49.11315" lon="1.7791">
        <ele>127.99</ele>
        <time>2015-11-01T10:45:10Z</time>
      </trkpt>
      <trkpt lat="49.11299" lon="1.77902">
        <ele>127.99</ele>
        <time>2015-11-01T10:45:25Z</time>
      </trkpt>
      <trkpt lat="49.11284" lon="1.77896">
        <ele>128.47</ele>
        <time>2015-11-01T10:45:39Z</time>
      </trkpt>
      <trkpt lat="49.11269" lon="1.77891">
        <ele>128.95</ele>
        <time>2015-11-01T10:45:54Z</time>
      </trkpt>
      <trkpt lat="49.11256" lon="1.77886">
        <ele>128.95</ele>
        <time>2015-11-01T10:46:08Z</time>
      </trkpt>
      <trkpt lat="49.11246" lon="1.77882">
        <ele>129.43</ele>
        <time>2015-11-01T10:46:18Z</time>
      </trkpt>
      <trkpt lat="49.11226" lon="1.77874">
        <ele>129.92</ele>
        <time>2015-11-01T10:46:36Z</time>
      </trkpt>
      <trkpt lat="49.11208" lon="1.77866">
        <ele>130.4</ele>
        <time>2015-11-01T10:46:53Z</time>
      </trkpt>
      <trkpt lat="49.11192" lon="1.77858">
        <ele>130.88</ele>
        <time>2015-11-01T10:47:08Z</time>
      </trkpt>
      <trkpt lat="49.11175" lon="1.77851">
        <ele>131.36</ele>
        <time>2015-11-01T10:47:24Z</time>
      </trkpt>
      <trkpt lat="49.1116" lon="1.77846">
        <ele>131.36</ele>
        <time>2015-11-01T10:47:38Z</time>
      </trkpt>
      <trkpt lat="49.11143" lon="1.77839">
        <ele>131.36</ele>
        <time>2015-11-01T10:47:55Z</time>
      </trkpt>
      <trkpt lat="49.11136" lon="1.77836">
        <ele>131.36</ele>
        <time>2015-11-01T10:48:01Z</time>
      </trkpt>
      <trkpt lat="49.11118" lon="1.77829">
        <ele>131.36</ele>
        <time>2015-11-01T10:48:17Z</time>
      </trkpt>
      <trkpt lat="49.11098" lon="1.77818">
        <ele>131.84</ele>
        <time>2015-11-01T10:48:35Z</time>
      </trkpt>
      <trkpt lat="49.11084" lon="1.77812">
        <ele>131.84</ele>
        <time>2015-11-01T10:48:49Z</time>
      </trkpt>
      <trkpt lat="49.11077" lon="1.77809">
        <ele>132.32</ele>
        <time>2015-11-01T10:48:57Z</time>
      </trkpt>
      <trkpt lat="49.11064" lon="1.77804">
        <ele>132.8</ele>
        <time>2015-11-01T10:49:10Z</time>
      </trkpt>
      <trkpt lat="49.1106" lon="1.77802">
        <ele>132.8</ele>
        <time>2015-11-01T10:49:14Z</time>
      </trkpt>
      <trkpt lat="49.11057" lon="1.77801">
        <ele>132.8</ele>
        <time>2015-11-01T10:49:17Z</time>
      </trkpt>
      <trkpt lat="49.11041" lon="1.77793">
        <ele>133.76</ele>
        <time>2015-11-01T10:49:32Z</time>
      </trkpt>
      <trkpt lat="49.11027" lon="1.77788">
        <ele>133.76</ele>
        <time>2015-11-01T10:49:45Z</time>
      </trkpt>
      <trkpt lat="49.11012" lon="1.77782">
        <ele>134.24</ele>
        <time>2015-11-01T10:49:58Z</time>
      </trkpt>
      <trkpt lat="49.11006" lon="1.77778">
        <ele>134.72</ele>
        <time>2015-11-01T10:50:03Z</time>
      </trkpt>
      <trkpt lat="49.10987" lon="1.77771">
        <ele>135.2</ele>
        <time>2015-11-01T10:50:19Z</time>
      </trkpt>
      <trkpt lat="49.10986" lon="1.77771">
        <ele>135.2</ele>
        <time>2015-11-01T10:50:20Z</time>
      </trkpt>
      <trkpt lat="49.10983" lon="1.77769">
        <ele>135.2</ele>
        <time>2015-11-01T10:50:24Z</time>
      </trkpt>
      <trkpt lat="49.10976" lon="1.77766">
        <ele>135.2</ele>
        <time>2015-11-01T10:50:30Z</time>
      </trkpt>
      <trkpt lat="49.10962" lon="1.77759">
        <ele>135.2</ele>
        <time>2015-11-01T10:50:44Z</time>
      </trkpt>
      <trkpt lat="49.10962" lon="1.77759">
        <ele>135.68</ele>
        <time>2015-11-01T10:50:45Z</time>
      </trkpt>
      <trkpt lat="49.10952" lon="1.77756">
        <ele>136.16</ele>
        <time>2015-11-01T10:50:53Z</time>
      </trkpt>
      <trkpt lat="49.1093" lon="1.77747">
        <ele>137.13</ele>
        <time>2015-11-01T10:51:14Z</time>
      </trkpt>
      <trkpt lat="49.10922" lon="1.77743">
        <ele>137.13</ele>
        <time>2015-11-01T10:51:22Z</time>
      </trkpt>
      <trkpt lat="49.10906" lon="1.77735">
        <ele>138.09</ele>
        <time>2015-11-01T10:51:37Z</time>
      </trkpt>
      <trkpt lat="49.10901" lon="1.77734">
        <ele>138.57</ele>
        <time>2015-11-01T10:51:42Z</time>
      </trkpt>
      <trkpt lat="49.10894" lon="1.77731">
        <ele>138.57</ele>
        <time>2015-11-01T10:51:49Z</time>
      </trkpt>
      <trkpt lat="49.10878" lon="1.77723">
        <ele>139.53</ele>
        <time>2015-11-01T10:52:04Z</time>
      </trkpt>
      <trkpt lat="49.1086" lon="1.77713">
        <ele>139.53</ele>
        <time>2015-11-01T10:52:20Z</time>
      </trkpt>
      <trkpt lat="49.10843" lon="1.77705">
        <ele>140.01</ele>
        <time>2015-11-01T10:52:35Z</time>
      </trkpt>
      <trkpt lat="49.10821" lon="1.77696">
        <ele>140.01</ele>
        <time>2015-11-01T10:52:54Z</time>
      </trkpt>
      <trkpt lat="49.10801" lon="1.77692">
        <ele>140.49</ele>
        <time>2015-11-01T10:53:12Z</time>
      </trkpt>
      <trkpt lat="49.10781" lon="1.77689">
        <ele>140.97</ele>
        <time>2015-11-01T10:53:30Z</time>
      </trkpt>
      <trkpt lat="49.10768" lon="1.77688">
        <ele>140.97</ele>
        <time>2015-11-01T10:53:41Z</time>
      </trkpt>
      <trkpt lat="49.10763" lon="1.77688">
        <ele>140.97</ele>
        <time>2015-11-01T10:53:45Z</time>
      </trkpt>
      <trkpt lat="49.10754" lon="1.77687">
        <ele>140.97</ele>
        <time>2015-11-01T10:53:53Z</time>
      </trkpt>
      <trkpt lat="49.10745" lon="1.77686">
        <ele>141.45</ele>
        <time>2015-11-01T10:54:02Z</time>
      </trkpt>
      <trkpt lat="49.10725" lon="1.77683">
        <ele>141.45</ele>
        <time>2015-11-01T10:54:20Z</time>
      </trkpt>
      <trkpt lat="49.10707" lon="1.77681">
        <ele>141.93</ele>
        <time>2015-11-01T10:54:36Z</time>
      </trkpt>
      <trkpt lat="49.10698" lon="1.7768">
        <ele>141.93</ele>
        <time>2015-11-01T10:54:44Z</time>
      </trkpt>
      <trkpt lat="49.10691" lon="1.77679">
        <ele>141.93</ele>
        <time>2015-11-01T10:54:50Z</time>
      </trkpt>
      <trkpt lat="49.10681" lon="1.77677">
        <ele>141.93</ele>
        <time>2015-11-01T10:54:58Z</time>
      </trkpt>
      <trkpt lat="49.10678" lon="1.77677">
        <ele>141.93</ele>
        <time>2015-11-01T10:55:01Z</time>
      </trkpt>
      <trkpt lat="49.10665" lon="1.77678">
        <ele>142.41</ele>
        <time>2015-11-01T10:55:16Z</time>
      </trkpt>
      <trkpt lat="49.1066" lon="1.77678">
        <ele>142.41</ele>
        <time>2015-11-01T10:55:28Z</time>
      </trkpt>
      <trkpt lat="49.1065" lon="1.77674">
        <ele>141.93</ele>
        <time>2015-11-01T10:55:42Z</time>
      </trkpt>
      <trkpt lat="49.10645" lon="1.7767">
        <ele>142.41</ele>
        <time>2015-11-01T10:55:49Z</time>
      </trkpt>
      <trkpt lat="49.10634" lon="1.77663">
        <ele>142.41</ele>
        <time>2015-11-01T10:56:03Z</time>
      </trkpt>
      <trkpt lat="49.10619" lon="1.7766">
        <ele>142.41</ele>
        <time>2015-11-01T10:56:19Z</time>
      </trkpt>
      <trkpt lat="49.10602" lon="1.77656">
        <ele>142.89</ele>
        <time>2015-11-01T10:56:35Z</time>
      </trkpt>
      <trkpt lat="49.10583" lon="1.7765">
        <ele>142.89</ele>
        <time>2015-11-01T10:56:52Z</time>
      </trkpt>
      <trkpt lat="49.10567" lon="1.77646">
        <ele>143.37</ele>
        <time>2015-11-01T10:57:07Z</time>
      </trkpt>
      <trkpt lat="49.10551" lon="1.77645">
        <ele>143.37</ele>
        <time>2015-11-01T10:57:23Z</time>
      </trkpt>
      <trkpt lat="49.10545" lon="1.77643">
        <ele>143.85</ele>
        <time>2015-11-01T10:57:29Z</time>
      </trkpt>
      <trkpt lat="49.10541" lon="1.77642">
        <ele>143.37</ele>
        <time>2015-11-01T10:57:33Z</time>
      </trkpt>
      <trkpt lat="49.10523" lon="1.77638">
        <ele>143.37</ele>
        <time>2015-11-01T10:57:49Z</time>
      </trkpt>
      <trkpt lat="49.10515" lon="1.77637">
        <ele>143.85</ele>
        <time>2015-11-01T10:57:56Z</time>
      </trkpt>
      <trkpt lat="49.10501" lon="1.77633">
        <ele>143.85</ele>
        <time>2015-11-01T10:58:09Z</time>
      </trkpt>
      <trkpt lat="49.10485" lon="1.7763">
        <ele>144.34</ele>
        <time>2015-11-01T10:58:23Z</time>
      </trkpt>
      <trkpt lat="49.1047" lon="1.77627">
        <ele>144.34</ele>
        <time>2015-11-01T10:58:36Z</time>
      </trkpt>
      <trkpt lat="49.1046" lon="1.77623">
        <ele>144.34</ele>
        <time>2015-11-01T10:58:50Z</time>
      </trkpt>
      <trkpt lat="49.10444" lon="1.7762">
        <ele>144.34</ele>
        <time>2015-11-01T10:59:04Z</time>
      </trkpt>
      <trkpt lat="49.10434" lon="1.77616">
        <ele>144.82</ele>
        <time>2015-11-01T10:59:13Z</time>
      </trkpt>
      <trkpt lat="49.10415" lon="1.77614">
        <ele>144.82</ele>
        <time>2015-11-01T10:59:31Z</time>
      </trkpt>
      <trkpt lat="49.10396" lon="1.7761">
        <ele>145.78</ele>
        <time>2015-11-01T10:59:47Z</time>
      </trkpt>
      <trkpt lat="49.10395" lon="1.7761">
        <ele>145.78</ele>
        <time>2015-11-01T10:59:48Z</time>
      </trkpt>
      <trkpt lat="49.10374" lon="1.77605">
        <ele>146.74</ele>
        <time>2015-11-01T11:00:05Z</time>
      </trkpt>
      <trkpt lat="49.10353" lon="1.77601">
        <ele>147.22</ele>
        <time>2015-11-01T11:00:24Z</time>
      </trkpt>
      <trkpt lat="49.10335" lon="1.77596">
        <ele>148.18</ele>
        <time>2015-11-01T11:00:40Z</time>
      </trkpt>
      <trkpt lat="49.10316" lon="1.77592">
        <ele>149.14</ele>
        <time>2015-11-01T11:00:57Z</time>
      </trkpt>
      <trkpt lat="49.10299" lon="1.77589">
        <ele>150.1</ele>
        <time>2015-11-01T11:01:11Z</time>
      </trkpt>
      <trkpt lat="49.10285" lon="1.77585">
        <ele>150.58</ele>
        <time>2015-11-01T11:01:24Z</time>
      </trkpt>
      <trkpt lat="49.10268" lon="1.77581">
        <ele>151.54</ele>
        <time>2015-11-01T11:01:40Z</time>
      </trkpt>
      <trkpt lat="49.10267" lon="1.77581">
        <ele>152.03</ele>
        <time>2015-11-01T11:01:41Z</time>
      </trkpt>
      <trkpt lat="49.10261" lon="1.77578">
        <ele>152.03</ele>
        <time>2015-11-01T11:01:47Z</time>
      </trkpt>
      <trkpt lat="49.10252" lon="1.77577">
        <ele>152.99</ele>
        <time>2015-11-01T11:02:01Z</time>
      </trkpt>
      <trkpt lat="49.10237" lon="1.77572">
        <ele>153.47</ele>
        <time>2015-11-01T11:02:16Z</time>
      </trkpt>
      <trkpt lat="49.10222" lon="1.77569">
        <ele>154.43</ele>
        <time>2015-11-01T11:02:31Z</time>
      </trkpt>
      <trkpt lat="49.10204" lon="1.77565">
        <ele>155.39</ele>
        <time>2015-11-01T11:02:48Z</time>
      </trkpt>
      <trkpt lat="49.10189" lon="1.77564">
        <ele>156.83</ele>
        <time>2015-11-01T11:03:04Z</time>
      </trkpt>
      <trkpt lat="49.10173" lon="1.77559">
        <ele>157.31</ele>
        <time>2015-11-01T11:03:20Z</time>
      </trkpt>
      <trkpt lat="49.10165" lon="1.77561">
        <ele>158.27</ele>
        <time>2015-11-01T11:03:33Z</time>
      </trkpt>
      <trkpt lat="49.10162" lon="1.77558">
        <ele>158.27</ele>
        <time>2015-11-01T11:03:44Z</time>
      </trkpt>
      <trkpt lat="49.10163" lon="1.77557">
        <ele>158.27</ele>
        <time>2015-11-01T11:04:07Z</time>
      </trkpt>
      <trkpt lat="49.10162" lon="1.77558">
        <ele>158.27</ele>
        <time>2015-11-01T11:04:36Z</time>
      </trkpt>
      <trkpt lat="49.10162" lon="1.77558">
        <ele>158.75</ele>
        <time>2015-11-01T11:04:57Z</time>
      </trkpt>
      <trkpt lat="49.10162" lon="1.77558">
        <ele>158.75</ele>
        <time>2015-11-01T11:05:20Z</time>
      </trkpt>
      <trkpt lat="49.10161" lon="1.77558">
        <ele>158.75</ele>
        <time>2015-11-01T11:05:33Z</time>
      </trkpt>
      <trkpt lat="49.10161" lon="1.77557">
        <ele>158.75</ele>
        <time>2015-11-01T11:05:46Z</time>
      </trkpt>
      <trkpt lat="49.10159" lon="1.77559">
        <ele>158.75</ele>
        <time>2015-11-01T11:06:02Z</time>
      </trkpt>
      <trkpt lat="49.10158" lon="1.77559">
        <ele>158.75</ele>
        <time>2015-11-01T11:06:18Z</time>
      </trkpt>
      <trkpt lat="49.10157" lon="1.77559">
        <ele>158.75</ele>
        <time>2015-11-01T11:06:34Z</time>
      </trkpt>
      <trkpt lat="49.10156" lon="1.77561">
        <ele>158.27</ele>
        <time>2015-11-01T11:06:48Z</time>
      </trkpt>
      <trkpt lat="49.10158" lon="1.77557">
        <ele>158.75</ele>
        <time>2015-11-01T11:07:03Z</time>
      </trkpt>
      <trkpt lat="49.10158" lon="1.77554">
        <ele>159.24</ele>
        <time>2015-11-01T11:07:16Z</time>
      </trkpt>
      <trkpt lat="49.10158" lon="1.77552">
        <ele>158.75</ele>
        <time>2015-11-01T11:07:32Z</time>
      </trkpt>
      <trkpt lat="49.10146" lon="1.77553">
        <ele>160.2</ele>
        <time>2015-11-01T11:07:44Z</time>
      </trkpt>
      <trkpt lat="49.10141" lon="1.77552">
        <ele>159.72</ele>
        <time>2015-11-01T11:07:49Z</time>
      </trkpt>
      <trkpt lat="49.10131" lon="1.77547">
        <ele>160.68</ele>
        <time>2015-11-01T11:08:02Z</time>
      </trkpt>
      <trkpt lat="49.10117" lon="1.7754">
        <ele>161.64</ele>
        <time>2015-11-01T11:08:16Z</time>
      </trkpt>
      <trkpt lat="49.10101" lon="1.77535">
        <ele>162.12</ele>
        <time>2015-11-01T11:08:31Z</time>
      </trkpt>
      <trkpt lat="49.1009" lon="1.7753">
        <ele>162.6</ele>
        <time>2015-11-01T11:08:42Z</time>
      </trkpt>
      <trkpt lat="49.10088" lon="1.7753">
        <ele>163.08</ele>
        <time>2015-11-01T11:08:45Z</time>
      </trkpt>
      <trkpt lat="49.10074" lon="1.77525">
        <ele>163.08</ele>
        <time>2015-11-01T11:08:59Z</time>
      </trkpt>
      <trkpt lat="49.10061" lon="1.77523">
        <ele>164.04</ele>
        <time>2015-11-01T11:09:12Z</time>
      </trkpt>
      <trkpt lat="49.10046" lon="1.77519">
        <ele>164.52</ele>
        <time>2015-11-01T11:09:26Z</time>
      </trkpt>
      <trkpt lat="49.10027" lon="1.77513">
        <ele>165.96</ele>
        <time>2015-11-01T11:09:43Z</time>
      </trkpt>
      <trkpt lat="49.10009" lon="1.77504">
        <ele>166.93</ele>
        <time>2015-11-01T11:10:00Z</time>
      </trkpt>
      <trkpt lat="49.10007" lon="1.77503">
        <ele>167.41</ele>
        <time>2015-11-01T11:10:02Z</time>
      </trkpt>
      <trkpt lat="49.09991" lon="1.77495">
        <ele>167.89</ele>
        <time>2015-11-01T11:10:18Z</time>
      </trkpt>
      <trkpt lat="49.09986" lon="1.77494">
        <ele>168.37</ele>
        <time>2015-11-01T11:10:24Z</time>
      </trkpt>
      <trkpt lat="49.0997" lon="1.7751">
        <ele>169.33</ele>
        <time>2015-11-01T11:10:38Z</time>
      </trkpt>
      <trkpt lat="49.09952" lon="1.77529">
        <ele>170.77</ele>
        <time>2015-11-01T11:10:58Z</time>
      </trkpt>
      <trkpt lat="49.09952" lon="1.77531">
        <ele>171.25</ele>
        <time>2015-11-01T11:10:59Z</time>
      </trkpt>
      <trkpt lat="49.09955" lon="1.77542">
        <ele>171.73</ele>
        <time>2015-11-01T11:11:10Z</time>
      </trkpt>
      <trkpt lat="49.09962" lon="1.77568">
        <ele>171.73</ele>
        <time>2015-11-01T11:11:26Z</time>
      </trkpt>
      <trkpt lat="49.09963" lon="1.77577">
        <ele>171.73</ele>
        <time>2015-11-01T11:11:38Z</time>
      </trkpt>
      <trkpt lat="49.09962" lon="1.77575">
        <ele>171.25</ele>
        <time>2015-11-01T11:12:01Z</time>
      </trkpt>
      <trkpt lat="49.09963" lon="1.77575">
        <ele>171.73</ele>
        <time>2015-11-01T11:12:22Z</time>
      </trkpt>
      <trkpt lat="49.09964" lon="1.77573">
        <ele>171.73</ele>
        <time>2015-11-01T11:12:41Z</time>
      </trkpt>
      <trkpt lat="49.09964" lon="1.77565">
        <ele>171.73</ele>
        <time>2015-11-01T11:12:50Z</time>
      </trkpt>
      <trkpt lat="49.09962" lon="1.77556">
        <ele>171.73</ele>
        <time>2015-11-01T11:12:55Z</time>
      </trkpt>
      <trkpt lat="49.09961" lon="1.77551">
        <ele>171.25</ele>
        <time>2015-11-01T11:12:57Z</time>
      </trkpt>
      <trkpt lat="49.09954" lon="1.77539">
        <ele>171.73</ele>
        <time>2015-11-01T11:13:10Z</time>
      </trkpt>
      <trkpt lat="49.09947" lon="1.77524">
        <ele>171.73</ele>
        <time>2015-11-01T11:15:09Z</time>
      </trkpt>
      <trkpt lat="49.0994" lon="1.77516">
        <ele>172.21</ele>
        <time>2015-11-01T11:15:27Z</time>
      </trkpt>
      <trkpt lat="49.09939" lon="1.77514">
        <ele>171.73</ele>
        <time>2015-11-01T11:15:29Z</time>
      </trkpt>
      <trkpt lat="49.09936" lon="1.77514">
        <ele>172.21</ele>
        <time>2015-11-01T11:15:32Z</time>
      </trkpt>
      <trkpt lat="49.0992" lon="1.77517">
        <ele>172.21</ele>
        <time>2015-11-01T11:15:46Z</time>
      </trkpt>
      <trkpt lat="49.09686" lon="1.76633">
        <ele>165</ele>
        <time>2015-11-01T11:37:50Z</time>
      </trkpt>
      <trkpt lat="49.09685" lon="1.76632">
        <ele>164.52</ele>
        <time>2015-11-01T11:38:06Z</time>
      </trkpt>
      <trkpt lat="49.09685" lon="1.76629">
        <ele>164.52</ele>
        <time>2015-11-01T11:40:29Z</time>
      </trkpt>
      <trkpt lat="49.09685" lon="1.7663">
        <ele>165</ele>
        <time>2015-11-01T11:40:51Z</time>
      </trkpt>
      <trkpt lat="49.09686" lon="1.7663">
        <ele>165</ele>
        <time>2015-11-01T11:41:14Z</time>
      </trkpt>
      <trkpt lat="49.09685" lon="1.76624">
        <ele>164.52</ele>
        <time>2015-11-01T11:41:28Z</time>
      </trkpt>
      <trkpt lat="49.09681" lon="1.76605">
        <ele>164.52</ele>
        <time>2015-11-01T11:41:42Z</time>
      </trkpt>
      <trkpt lat="49.09679" lon="1.76593">
        <ele>164.52</ele>
        <time>2015-11-01T11:41:51Z</time>
      </trkpt>
      <trkpt lat="49.09676" lon="1.76575">
        <ele>164.52</ele>
        <time>2015-11-01T11:42:05Z</time>
      </trkpt>
      <trkpt lat="49.09672" lon="1.76558">
        <ele>164.52</ele>
        <time>2015-11-01T11:42:18Z</time>
      </trkpt>
      <trkpt lat="49.0967" lon="1.76547">
        <ele>164.52</ele>
        <time>2015-11-01T11:42:26Z</time>
      </trkpt>
      <trkpt lat="49.09669" lon="1.76542">
        <ele>164.52</ele>
        <time>2015-11-01T11:42:29Z</time>
      </trkpt>
      <trkpt lat="49.09661" lon="1.76513">
        <ele>164.52</ele>
        <time>2015-11-01T11:42:46Z</time>
      </trkpt>
      <trkpt lat="49.09656" lon="1.76494">
        <ele>164.04</ele>
        <time>2015-11-01T11:42:59Z</time>
      </trkpt>
      <trkpt lat="49.09659" lon="1.76471">
        <ele>163.56</ele>
        <time>2015-11-01T11:43:31Z</time>
      </trkpt>
      <trkpt lat="49.09659" lon="1.76469">
        <ele>163.08</ele>
        <time>2015-11-01T11:43:52Z</time>
      </trkpt>
      <trkpt lat="49.09658" lon="1.76469">
        <ele>165</ele>
        <time>2015-11-01T12:20:29Z</time>
      </trkpt>
      <trkpt lat="49.09649" lon="1.76462">
        <ele>165</ele>
        <time>2015-11-01T12:21:08Z</time>
      </trkpt>
      <trkpt lat="49.09645" lon="1.76441">
        <ele>165</ele>
        <time>2015-11-01T12:21:21Z</time>
      </trkpt>
      <trkpt lat="49.09637" lon="1.7642">
        <ele>165</ele>
        <time>2015-11-01T12:21:38Z</time>
      </trkpt>
      <trkpt lat="49.09635" lon="1.76401">
        <ele>165</ele>
        <time>2015-11-01T12:21:52Z</time>
      </trkpt>
      <trkpt lat="49.0962" lon="1.76371">
        <ele>165.48</ele>
        <time>2015-11-01T12:22:09Z</time>
      </trkpt>
      <trkpt lat="49.0961" lon="1.76353">
        <ele>165.96</ele>
        <time>2015-11-01T12:22:23Z</time>
      </trkpt>
      <trkpt lat="49.096" lon="1.7634">
        <ele>165.96</ele>
        <time>2015-11-01T12:22:36Z</time>
      </trkpt>
      <trkpt lat="49.09594" lon="1.7633">
        <ele>166.45</ele>
        <time>2015-11-01T12:22:46Z</time>
      </trkpt>
      <trkpt lat="49.09583" lon="1.76307">
        <ele>166.45</ele>
        <time>2015-11-01T12:23:01Z</time>
      </trkpt>
      <trkpt lat="49.09577" lon="1.76285">
        <ele>166.45</ele>
        <time>2015-11-01T12:23:17Z</time>
      </trkpt>
      <trkpt lat="49.09576" lon="1.76276">
        <ele>166.45</ele>
        <time>2015-11-01T12:23:30Z</time>
      </trkpt>
      <trkpt lat="49.09568" lon="1.76257">
        <ele>165.96</ele>
        <time>2015-11-01T12:23:44Z</time>
      </trkpt>
      <trkpt lat="49.09561" lon="1.76235">
        <ele>165.96</ele>
        <time>2015-11-01T12:24:00Z</time>
      </trkpt>
      <trkpt lat="49.09553" lon="1.76214">
        <ele>166.93</ele>
        <time>2015-11-01T12:24:16Z</time>
      </trkpt>
      <trkpt lat="49.09549" lon="1.762">
        <ele>165.48</ele>
        <time>2015-11-01T12:24:29Z</time>
      </trkpt>
      <trkpt lat="49.09546" lon="1.76184">
        <ele>165</ele>
        <time>2015-11-01T12:24:41Z</time>
      </trkpt>
      <trkpt lat="49.09539" lon="1.76163">
        <ele>165.48</ele>
        <time>2015-11-01T12:24:53Z</time>
      </trkpt>
      <trkpt lat="49.0953" lon="1.7614">
        <ele>165.48</ele>
        <time>2015-11-01T12:25:08Z</time>
      </trkpt>
      <trkpt lat="49.09523" lon="1.76113">
        <ele>165</ele>
        <time>2015-11-01T12:25:26Z</time>
      </trkpt>
      <trkpt lat="49.09517" lon="1.76085">
        <ele>165</ele>
        <time>2015-11-01T12:25:42Z</time>
      </trkpt>
      <trkpt lat="49.09516" lon="1.76075">
        <ele>165</ele>
        <time>2015-11-01T12:25:49Z</time>
      </trkpt>
      <trkpt lat="49.09518" lon="1.76065">
        <ele>165.48</ele>
        <time>2015-11-01T12:26:03Z</time>
      </trkpt>
      <trkpt lat="49.09518" lon="1.76047">
        <ele>165.48</ele>
        <time>2015-11-01T12:26:21Z</time>
      </trkpt>
      <trkpt lat="49.09519" lon="1.76028">
        <ele>166.93</ele>
        <time>2015-11-01T12:26:40Z</time>
      </trkpt>
      <trkpt lat="49.09514" lon="1.75991">
        <ele>168.37</ele>
        <time>2015-11-01T12:26:59Z</time>
      </trkpt>
      <trkpt lat="49.0951" lon="1.75961">
        <ele>170.29</ele>
        <time>2015-11-01T12:27:18Z</time>
      </trkpt>
      <trkpt lat="49.09507" lon="1.75951">
        <ele>171.25</ele>
        <time>2015-11-01T12:27:36Z</time>
      </trkpt>
      <trkpt lat="49.09511" lon="1.7594">
        <ele>172.21</ele>
        <time>2015-11-01T12:27:52Z</time>
      </trkpt>
      <trkpt lat="49.09508" lon="1.7592">
        <ele>173.66</ele>
        <time>2015-11-01T12:28:06Z</time>
      </trkpt>
      <trkpt lat="49.09505" lon="1.75895">
        <ele>176.06</ele>
        <time>2015-11-01T12:28:26Z</time>
      </trkpt>
      <trkpt lat="49.09506" lon="1.75875">
        <ele>178.46</ele>
        <time>2015-11-01T12:28:43Z</time>
      </trkpt>
      <trkpt lat="49.09505" lon="1.75866">
        <ele>179.42</ele>
        <time>2015-11-01T12:29:05Z</time>
      </trkpt>
      <trkpt lat="49.095" lon="1.75851">
        <ele>181.35</ele>
        <time>2015-11-01T12:29:25Z</time>
      </trkpt>
      <trkpt lat="49.09502" lon="1.7583">
        <ele>183.27</ele>
        <time>2015-11-01T12:29:45Z</time>
      </trkpt>
      <trkpt lat="49.095" lon="1.75809">
        <ele>184.71</ele>
        <time>2015-11-01T12:30:02Z</time>
      </trkpt>
      <trkpt lat="49.09502" lon="1.75794">
        <ele>186.63</ele>
        <time>2015-11-01T12:30:21Z</time>
      </trkpt>
      <trkpt lat="49.095" lon="1.7577">
        <ele>188.56</ele>
        <time>2015-11-01T12:30:38Z</time>
      </trkpt>
      <trkpt lat="49.09498" lon="1.75757">
        <ele>190.48</ele>
        <time>2015-11-01T12:30:54Z</time>
      </trkpt>
      <trkpt lat="49.09498" lon="1.75742">
        <ele>192.4</ele>
        <time>2015-11-01T12:31:09Z</time>
      </trkpt>
      <trkpt lat="49.09498" lon="1.75736">
        <ele>193.36</ele>
        <time>2015-11-01T12:31:26Z</time>
      </trkpt>
      <trkpt lat="49.09502" lon="1.75717">
        <ele>194.32</ele>
        <time>2015-11-01T12:31:47Z</time>
      </trkpt>
      <trkpt lat="49.09502" lon="1.75681">
        <ele>196.73</ele>
        <time>2015-11-01T12:32:07Z</time>
      </trkpt>
      <trkpt lat="49.09501" lon="1.75669">
        <ele>197.69</ele>
        <time>2015-11-01T12:32:20Z</time>
      </trkpt>
      <trkpt lat="49.09499" lon="1.7565">
        <ele>198.65</ele>
        <time>2015-11-01T12:32:38Z</time>
      </trkpt>
      <trkpt lat="49.09498" lon="1.75625">
        <ele>199.61</ele>
        <time>2015-11-01T12:32:54Z</time>
      </trkpt>
      <trkpt lat="49.09495" lon="1.75599">
        <ele>201.05</ele>
        <time>2015-11-01T12:33:11Z</time>
      </trkpt>
      <trkpt lat="49.09488" lon="1.75569">
        <ele>202.01</ele>
        <time>2015-11-01T12:33:28Z</time>
      </trkpt>
      <trkpt lat="49.09484" lon="1.75554">
        <ele>202.49</ele>
        <time>2015-11-01T12:33:45Z</time>
      </trkpt>
      <trkpt lat="49.09481" lon="1.75543">
        <ele>202.49</ele>
        <time>2015-11-01T12:33:51Z</time>
      </trkpt>
      <trkpt lat="49.09472" lon="1.75526">
        <ele>202.98</ele>
        <time>2015-11-01T12:34:07Z</time>
      </trkpt>
      <trkpt lat="49.09425" lon="1.75359">
        <ele>203.94</ele>
        <time>2015-11-01T12:36:01Z</time>
      </trkpt>
      <trkpt lat="49.09425" lon="1.75362">
        <ele>203.46</ele>
        <time>2015-11-01T12:36:18Z</time>
      </trkpt>
      <trkpt lat="49.09423" lon="1.75362">
        <ele>203.94</ele>
        <time>2015-11-01T12:38:01Z</time>
      </trkpt>
      <trkpt lat="49.09225" lon="1.75365">
        <ele>201.8</ele>
      </trkpt>
      <trkpt lat="49.09102" lon="1.75373">
        <ele>202.3</ele>
      </trkpt>
      <trkpt lat="49.08949" lon="1.75417">
        <ele>202.2</ele>
      </trkpt>
      <trkpt lat="49.08977" lon="1.75566">
        <ele>203.8</ele>
      </trkpt>
      <trkpt lat="49.09012" lon="1.75679">
        <ele>203.8</ele>
      </trkpt>
      <trkpt lat="49.09013" lon="1.75726">
        <ele>204</ele>
      </trkpt>
      <trkpt lat="49.08984" lon="1.75701">
        <ele>204</ele>
      </trkpt>
      <trkpt lat="49.08826" lon="1.7566">
        <ele>204</ele>
      </trkpt>
      <trkpt lat="49.08814" lon="1.75645">
        <ele>204</ele>
      </trkpt>
      <trkpt lat="49.08771" lon="1.7551">
        <ele>202.3</ele>
      </trkpt>
      <trkpt lat="49.08741" lon="1.75476">
        <ele>201.1</ele>
      </trkpt>
      <trkpt lat="49.08669" lon="1.75418">
        <ele>199.1</ele>
      </trkpt>
      <trkpt lat="49.08638" lon="1.75405">
        <ele>199</ele>
      </trkpt>
      <trkpt lat="49.08559" lon="1.75338">
        <ele>198</ele>
      </trkpt>
      <trkpt lat="49.08415" lon="1.75324">
        <ele>196</ele>
      </trkpt>
      <trkpt lat="49.08342" lon="1.75279">
        <ele>194.3</ele>
      </trkpt>
      <trkpt lat="49.08291" lon="1.75263">
        <ele>192.7</ele>
      </trkpt>
      <trkpt lat="49.082" lon="1.75189">
        <ele>186</ele>
      </trkpt>
      <trkpt lat="49.0818" lon="1.75159">
        <ele>181.9</ele>
      </trkpt>
      <trkpt lat="49.08175" lon="1.75043">
        <ele>174.3</ele>
      </trkpt>
      <trkpt lat="49.08137" lon="1.74875">
        <ele>160.3</ele>
      </trkpt>
      <trkpt lat="49.08041" lon="1.74737">
        <ele>147.5</ele>
      </trkpt>
      <trkpt lat="49.08022" lon="1.74719">
        <ele>145.7</ele>
      </trkpt>
      <trkpt lat="49.08011" lon="1.74709">
        <ele>144.9</ele>
      </trkpt>
      <trkpt lat="49.07994" lon="1.74677">
        <ele>144</ele>
      </trkpt>
      <trkpt lat="49.07969" lon="1.74683">
        <ele>144</ele>
      </trkpt>
      <trkpt lat="49.07958" lon="1.74672">
        <ele>143.7</ele>
      </trkpt>
      <trkpt lat="49.07944" lon="1.74601">
        <ele>142</ele>
      </trkpt>
      <trkpt lat="49.07922" lon="1.74566">
        <ele>141.7</ele>
      </trkpt>
      <trkpt lat="49.07861" lon="1.74536">
        <ele>141.7</ele>
      </trkpt>
      <trkpt lat="49.07833" lon="1.74484">
        <ele>143.6</ele>
      </trkpt>
      <trkpt lat="49.07789" lon="1.74414">
        <ele>147.2</ele>
      </trkpt>
      <trkpt lat="49.07682" lon="1.74366">
        <ele>146.4</ele>
      </trkpt>
      <trkpt lat="49.077" lon="1.74231">
        <ele>148.2</ele>
      </trkpt>
      <trkpt lat="49.07688" lon="1.74182">
        <ele>147.8</ele>
      </trkpt>
      <trkpt lat="49.07497" lon="1.73785">
        <ele>140.9</ele>
      </trkpt>
      <trkpt lat="49.07479" lon="1.73735">
        <ele>140.8</ele>
      </trkpt>
      <trkpt lat="49.07396" lon="1.73197">
        <ele>145.3</ele>
      </trkpt>
      <trkpt lat="49.07415" lon="1.7305">
        <ele>144.7</ele>
      </trkpt>
      <trkpt lat="49.07431" lon="1.72952">
        <ele>143.1</ele>
      </trkpt>
      <trkpt lat="49.07464" lon="1.72832">
        <ele>141.7</ele>
      </trkpt>
      <trkpt lat="49.07175" lon="1.72483">
        <ele>127.9</ele>
      </trkpt>
      <trkpt lat="49.07149" lon="1.72385">
        <ele>121.3</ele>
      </trkpt>
      <trkpt lat="49.07098" lon="1.72301">
        <ele>115.6</ele>
      </trkpt>
      <trkpt lat="49.07039" lon="1.72242">
        <ele>111.2</ele>
      </trkpt>
      <trkpt lat="49.06926" lon="1.72165">
        <ele>108.5</ele>
      </trkpt>
      <trkpt lat="49.06892" lon="1.72118">
        <ele>106.4</ele>
      </trkpt>
      <trkpt lat="49.06897" lon="1.72062">
        <ele>100.1</ele>
      </trkpt>
      <trkpt lat="49.06859" lon="1.7197">
        <ele>83.6</ele>
      </trkpt>
      <trkpt lat="49.06797" lon="1.71958">
        <ele>77.6</ele>
      </trkpt>
      <trkpt lat="49.06747" lon="1.71932">
        <ele>70.2</ele>
      </trkpt>
      <trkpt lat="49.06713" lon="1.71936">
        <ele>65.8</ele>
      </trkpt>
      <trkpt lat="49.06684" lon="1.71962">
        <ele>61.9</ele>
      </trkpt>
      <trkpt lat="49.06618" lon="1.72042">
        <ele>51.5</ele>
      </trkpt>
      <trkpt lat="49.06618" lon="1.71988">
        <ele>49.6</ele>
      </trkpt>
      <trkpt lat="49.06663" lon="1.71784">
        <ele>46</ele>
      </trkpt>
      <trkpt lat="49.06665" lon="1.71679">
        <ele>48.9</ele>
      </trkpt>
      <trkpt lat="49.0666" lon="1.71644">
        <ele>50.3</ele>
      </trkpt>
      <trkpt lat="49.06667" lon="1.71624">
        <ele>52.5</ele>
      </trkpt>
      <trkpt lat="49.0671" lon="1.71593">
        <ele>59</ele>
      </trkpt>
      <trkpt lat="49.06735" lon="1.71561">
        <ele>64</ele>
      </trkpt>
      <trkpt lat="49.06776" lon="1.71504">
        <ele>71.5</ele>
      </trkpt>
      <trkpt lat="49.06783" lon="1.71467">
        <ele>75.6</ele>
      </trkpt>
      <trkpt lat="49.06744" lon="1.71417">
        <ele>73.9</ele>
      </trkpt>
      <trkpt lat="49.06714" lon="1.71367">
        <ele>73</ele>
      </trkpt>
      <trkpt lat="49.06691" lon="1.71305">
        <ele>72.3</ele>
      </trkpt>
      <trkpt lat="49.06606" lon="1.70875">
        <ele>60.8</ele>
      </trkpt>
      <trkpt lat="49.06564" lon="1.70643">
        <ele>47</ele>
      </trkpt>
      <trkpt lat="49.06581" lon="1.70628">
        <ele>50</ele>
      </trkpt>
      <trkpt lat="49.06561" lon="1.70614">
        <ele>43.9</ele>
      </trkpt>
      <trkpt lat="49.06545" lon="1.70567">
        <ele>37.4</ele>
      </trkpt>
      <trkpt lat="49.06473" lon="1.70482">
        <ele>26.1</ele>
      </trkpt>
      <trkpt lat="49.06475" lon="1.70451">
        <ele>25.4</ele>
      </trkpt>
      <trkpt lat="49.06492" lon="1.70452">
        <ele>26</ele>
      </trkpt>
      <trkpt lat="49.06504" lon="1.70451">
        <ele>26.4</ele>
      </trkpt>
      <trkpt lat="49.06511" lon="1.7045">
        <ele>26.7</ele>
      </trkpt>
      <trkpt lat="49.06527" lon="1.70169">
        <ele>32.8</ele>
      </trkpt>
      <trkpt lat="49.06516" lon="1.70154">
        <ele>31.9</ele>
      </trkpt>
      <trkpt lat="49.06514" lon="1.70107">
        <ele>31</ele>
      </trkpt>
      <trkpt lat="49.06515" lon="1.70107">
        <ele>31</ele>
      </trkpt>
      <trkpt lat="49.06516" lon="1.70098">
        <ele>31</ele>
      </trkpt>
      <trkpt lat="49.06517" lon="1.7009">
        <ele>32</ele>
      </trkpt>
      <trkpt lat="49.06518" lon="1.70085">
        <ele>32</ele>
      </trkpt>
      <trkpt lat="49.06519" lon="1.70081">
        <ele>32</ele>
      </trkpt>
      <trkpt lat="49.06521" lon="1.70079">
        <ele>32</ele>
      </trkpt>
      <trkpt lat="49.06525" lon="1.70077">
        <ele>32</ele>
      </trkpt>
      <trkpt lat="49.06531" lon="1.70072">
        <ele>33</ele>
      </trkpt>
      <trkpt lat="49.06534" lon="1.70067">
        <ele>33</ele>
      </trkpt>
      <trkpt lat="49.06537" lon="1.7006">
        <ele>34</ele>
      </trkpt>
      <trkpt lat="49.06539" lon="1.70054">
        <ele>34</ele>
      </trkpt>
      <trkpt lat="49.06548" lon="1.70052">
        <ele>35</ele>
      </trkpt>
      <trkpt lat="49.06568" lon="1.70048">
        <ele>38</ele>
      </trkpt>
      <trkpt lat="49.06611" lon="1.70041">
        <ele>44</ele>
      </trkpt>
      <trkpt lat="49.06612" lon="1.70041">
        <ele>44</ele>
      </trkpt>
      <trkpt lat="49.06653" lon="1.6998">
        <ele>50</ele>
      </trkpt>
      <trkpt lat="49.06686" lon="1.69934">
        <ele>55</ele>
      </trkpt>
      <trkpt lat="49.06757" lon="1.6985">
        <ele>68</ele>
      </trkpt>
      <trkpt lat="49.06805" lon="1.69795">
        <ele>77</ele>
      </trkpt>
      <trkpt lat="49.06815" lon="1.69784">
        <ele>79</ele>
      </trkpt>
      <trkpt lat="49.06818" lon="1.6978">
        <ele>80</ele>
      </trkpt>
      <trkpt lat="49.06828" lon="1.69771">
        <ele>83</ele>
      </trkpt>
      <trkpt lat="49.06855" lon="1.69737">
        <ele>87</ele>
      </trkpt>
      <trkpt lat="49.069" lon="1.69696">
        <ele>96</ele>
      </trkpt>
      <trkpt lat="49.0693" lon="1.69676">
        <ele>103</ele>
      </trkpt>
      <trkpt lat="49.06965" lon="1.69652">
        <ele>109</ele>
      </trkpt>
      <trkpt lat="49.06979" lon="1.69637">
        <ele>110</ele>
      </trkpt>
      <trkpt lat="49.06988" lon="1.69631">
        <ele>112</ele>
      </trkpt>
      <trkpt lat="49.06999" lon="1.6963">
        <ele>115</ele>
      </trkpt>
      <trkpt lat="49.07014" lon="1.69627">
        <ele>118</ele>
      </trkpt>
      <trkpt lat="49.07034" lon="1.69616">
        <ele>120</ele>
      </trkpt>
      <trkpt lat="49.07053" lon="1.69601">
        <ele>122</ele>
      </trkpt>
      <trkpt lat="49.07067" lon="1.69589">
        <ele>124</ele>
      </trkpt>
      <trkpt lat="49.07073" lon="1.69587">
        <ele>125</ele>
      </trkpt>
      <trkpt lat="49.07091" lon="1.69589">
        <ele>128</ele>
      </trkpt>
      <trkpt lat="49.07101" lon="1.69587">
        <ele>128</ele>
      </trkpt>
      <trkpt lat="49.07115" lon="1.69578">
        <ele>129</ele>
      </trkpt>
      <trkpt lat="49.07122" lon="1.69579">
        <ele>130</ele>
      </trkpt>
      <trkpt lat="49.07134" lon="1.69563">
        <ele>129</ele>
      </trkpt>
      <trkpt lat="49.07161" lon="1.69536">
        <ele>129</ele>
      </trkpt>
      <trkpt lat="49.0718" lon="1.69525">
        <ele>130</ele>
      </trkpt>
      <trkpt lat="49.07194" lon="1.69523">
        <ele>131</ele>
      </trkpt>
      <trkpt lat="49.07228" lon="1.69523">
        <ele>134</ele>
      </trkpt>
      <trkpt lat="49.07228" lon="1.69523">
        <ele>134</ele>
      </trkpt>
      <trkpt lat="49.07247" lon="1.69518">
        <ele>136</ele>
      </trkpt>
      <trkpt lat="49.07262" lon="1.69513">
        <ele>136</ele>
      </trkpt>
      <trkpt lat="49.0727" lon="1.69502">
        <ele>136</ele>
      </trkpt>
      <trkpt lat="49.07315" lon="1.69443">
        <ele>137</ele>
      </trkpt>
      <trkpt lat="49.07363" lon="1.69384">
        <ele>139</ele>
      </trkpt>
      <trkpt lat="49.07394" lon="1.69333">
        <ele>141</ele>
      </trkpt>
      <trkpt lat="49.07404" lon="1.69319">
        <ele>141</ele>
      </trkpt>
      <trkpt lat="49.07422" lon="1.69302">
        <ele>142</ele>
      </trkpt>
      <trkpt lat="49.07427" lon="1.69299">
        <ele>142</ele>
      </trkpt>
      <trkpt lat="49.07436" lon="1.69293">
        <ele>142</ele>
      </trkpt>
      <trkpt lat="49.07448" lon="1.69285">
        <ele>142</ele>
      </trkpt>
      <trkpt lat="49.07463" lon="1.69268">
        <ele>142</ele>
      </trkpt>
      <trkpt lat="49.07507" lon="1.69213">
        <ele>143</ele>
      </trkpt>
      <trkpt lat="49.07523" lon="1.69189">
        <ele>143</ele>
      </trkpt>
      <trkpt lat="49.07538" lon="1.69165">
        <ele>143</ele>
      </trkpt>
      <trkpt lat="49.07557" lon="1.69134">
        <ele>143</ele>
      </trkpt>
      <trkpt lat="49.07571" lon="1.69111">
        <ele>143</ele>
      </trkpt>
      <trkpt lat="49.0759" lon="1.69078">
        <ele>144</ele>
      </trkpt>
      <trkpt lat="49.07594" lon="1.69071">
        <ele>143</ele>
      </trkpt>
      <trkpt lat="49.07605" lon="1.69048">
        <ele>143</ele>
      </trkpt>
      <trkpt lat="49.07624" lon="1.68999">
        <ele>143</ele>
      </trkpt>
      <trkpt lat="49.07626" lon="1.68996">
        <ele>144</ele>
      </trkpt>
      <trkpt lat="49.0765" lon="1.68954">
        <ele>145</ele>
      </trkpt>
      <trkpt lat="49.07687" lon="1.68881">
        <ele>146</ele>
      </trkpt>
      <trkpt lat="49.07726" lon="1.68802">
        <ele>145</ele>
      </trkpt>
      <trkpt lat="49.07737" lon="1.68772">
        <ele>145</ele>
      </trkpt>
      <trkpt lat="49.0775" lon="1.68745">
        <ele>145</ele>
      </trkpt>
      <trkpt lat="49.07765" lon="1.68706">
        <ele>145</ele>
      </trkpt>
      <trkpt lat="49.07785" lon="1.68635">
        <ele>143</ele>
      </trkpt>
      <trkpt lat="49.07821" lon="1.68549">
        <ele>141</ele>
      </trkpt>
      <trkpt lat="49.07843" lon="1.68501">
        <ele>141</ele>
      </trkpt>
      <trkpt lat="49.07845" lon="1.68494">
        <ele>141</ele>
      </trkpt>
      <trkpt lat="49.07857" lon="1.68464">
        <ele>140</ele>
      </trkpt>
      <trkpt lat="49.07869" lon="1.68433">
        <ele>140</ele>
      </trkpt>
      <trkpt lat="49.07885" lon="1.68389">
        <ele>140</ele>
      </trkpt>
      <trkpt lat="49.07894" lon="1.68364">
        <ele>141</ele>
      </trkpt>
      <trkpt lat="49.07938" lon="1.68234">
        <ele>143</ele>
      </trkpt>
      <trkpt lat="49.07968" lon="1.68133">
        <ele>139</ele>
      </trkpt>
      <trkpt lat="49.07983" lon="1.68097">
        <ele>139</ele>
      </trkpt>
      <trkpt lat="49.07989" lon="1.68084">
        <ele>140</ele>
      </trkpt>
      <trkpt lat="49.0803" lon="1.67994">
        <ele>140</ele>
      </trkpt>
      <trkpt lat="49.0804" lon="1.6797">
        <ele>140</ele>
      </trkpt>
      <trkpt lat="49.08051" lon="1.67947">
        <ele>140</ele>
      </trkpt>
      <trkpt lat="49.08058" lon="1.67928">
        <ele>140</ele>
      </trkpt>
      <trkpt lat="49.08066" lon="1.67909">
        <ele>140</ele>
      </trkpt>
      <trkpt lat="49.08076" lon="1.67892">
        <ele>140</ele>
      </trkpt>
      <trkpt lat="49.08094" lon="1.6786">
        <ele>140</ele>
      </trkpt>
      <trkpt lat="49.08148" lon="1.67774">
        <ele>142</ele>
      </trkpt>
      <trkpt lat="49.08179" lon="1.67708">
        <ele>146.5</ele>
      </trkpt>
      <trkpt lat="49.08175" lon="1.67696">
        <ele>144.3</ele>
      </trkpt>
      <trkpt lat="49.08175" lon="1.6767">
        <ele>142.3</ele>
      </trkpt>
      <trkpt lat="49.08175" lon="1.6761">
        <ele>138.6</ele>
      </trkpt>
      <trkpt lat="49.08161" lon="1.67581">
        <ele>133.1</ele>
      </trkpt>
      <trkpt lat="49.08149" lon="1.6757">
        <ele>128.9</ele>
      </trkpt>
      <trkpt lat="49.08151" lon="1.67502">
        <ele>122.7</ele>
      </trkpt>
      <trkpt lat="49.08157" lon="1.6745">
        <ele>119.6</ele>
      </trkpt>
      <trkpt lat="49.08148" lon="1.67382">
        <ele>115.9</ele>
      </trkpt>
      <trkpt lat="49.08145" lon="1.67366">
        <ele>115.5</ele>
      </trkpt>
      <trkpt lat="49.08143" lon="1.67329">
        <ele>114</ele>
      </trkpt>
      <trkpt lat="49.08138" lon="1.67293">
        <ele>110.1</ele>
      </trkpt>
      <trkpt lat="49.08115" lon="1.67315">
        <ele>108.9</ele>
      </trkpt>
      <trkpt lat="49.08083" lon="1.67316">
        <ele>100.7</ele>
      </trkpt>
      <trkpt lat="49.0806" lon="1.67309">
        <ele>89.9</ele>
      </trkpt>
      <trkpt lat="49.08035" lon="1.67317">
        <ele>77.6</ele>
      </trkpt>
      <trkpt lat="49.08018" lon="1.67308">
        <ele>67.4</ele>
      </trkpt>
      <trkpt lat="49.08034" lon="1.67289">
        <ele>75.1</ele>
      </trkpt>
      <trkpt lat="49.08057" lon="1.67303">
        <ele>88.2</ele>
      </trkpt>
      <trkpt lat="49.08082" lon="1.67311">
        <ele>100.2</ele>
      </trkpt>
      <trkpt lat="49.08113" lon="1.67318">
        <ele>108.7</ele>
      </trkpt>
      <trkpt lat="49.08134" lon="1.67293">
        <ele>109.3</ele>
      </trkpt>
      <trkpt lat="49.08159" lon="1.67289">
        <ele>113</ele>
      </trkpt>
      <trkpt lat="49.08175" lon="1.67276">
        <ele>114.4</ele>
      </trkpt>
      <trkpt lat="49.08209" lon="1.67256">
        <ele>119.2</ele>
      </trkpt>
      <trkpt lat="49.08248" lon="1.67259">
        <ele>130.5</ele>
      </trkpt>
      <trkpt lat="49.0827" lon="1.67252">
        <ele>136.3</ele>
      </trkpt>
      <trkpt lat="49.08278" lon="1.67266">
        <ele>140.8</ele>
      </trkpt>
      <trkpt lat="49.08279" lon="1.67287">
        <ele>144.5</ele>
      </trkpt>
      <trkpt lat="49.08291" lon="1.67307">
        <ele>148.5</ele>
      </trkpt>
      <trkpt lat="49.08293" lon="1.673">
        <ele>148.1</ele>
      </trkpt>
      <trkpt lat="49.08294" lon="1.67294">
        <ele>147.8</ele>
      </trkpt>
      <trkpt lat="49.08298" lon="1.67277">
        <ele>142</ele>
      </trkpt>
      <trkpt lat="49.08298" lon="1.67275">
        <ele>142</ele>
      </trkpt>
      <trkpt lat="49.08304" lon="1.67249">
        <ele>142</ele>
      </trkpt>
      <trkpt lat="49.0831" lon="1.67231">
        <ele>142</ele>
      </trkpt>
      <trkpt lat="49.08324" lon="1.67197">
        <ele>143</ele>
      </trkpt>
      <trkpt lat="49.08333" lon="1.67168">
        <ele>143</ele>
      </trkpt>
      <trkpt lat="49.08351" lon="1.67083">
        <ele>139</ele>
      </trkpt>
      <trkpt lat="49.08358" lon="1.67057">
        <ele>137</ele>
      </trkpt>
      <trkpt lat="49.08369" lon="1.67028">
        <ele>137</ele>
      </trkpt>
      <trkpt lat="49.08381" lon="1.6701">
        <ele>137</ele>
      </trkpt>
      <trkpt lat="49.08414" lon="1.66965">
        <ele>141</ele>
      </trkpt>
      <trkpt lat="49.08424" lon="1.66947">
        <ele>142</ele>
      </trkpt>
      <trkpt lat="49.08435" lon="1.66929">
        <ele>142</ele>
      </trkpt>
      <trkpt lat="49.08439" lon="1.66923">
        <ele>142</ele>
      </trkpt>
      <trkpt lat="49.0844" lon="1.66916">
        <ele>142</ele>
      </trkpt>
      <trkpt lat="49.08441" lon="1.66885">
        <ele>140</ele>
      </trkpt>
      <trkpt lat="49.08442" lon="1.66879">
        <ele>139</ele>
      </trkpt>
      <trkpt lat="49.08457" lon="1.6685">
        <ele>138</ele>
      </trkpt>
      <trkpt lat="49.08461" lon="1.66838">
        <ele>137</ele>
      </trkpt>
      <trkpt lat="49.08462" lon="1.66835">
        <ele>137</ele>
      </trkpt>
      <trkpt lat="49.08465" lon="1.66813">
        <ele>137</ele>
      </trkpt>
      <trkpt lat="49.08467" lon="1.66794">
        <ele>136</ele>
      </trkpt>
      <trkpt lat="49.08472" lon="1.66773">
        <ele>136</ele>
      </trkpt>
      <trkpt lat="49.0848" lon="1.66752">
        <ele>136</ele>
      </trkpt>
      <trkpt lat="49.08501" lon="1.66706">
        <ele>136</ele>
      </trkpt>
      <trkpt lat="49.08514" lon="1.66681">
        <ele>135</ele>
      </trkpt>
      <trkpt lat="49.0854" lon="1.66638">
        <ele>135</ele>
      </trkpt>
      <trkpt lat="49.08545" lon="1.66631">
        <ele>135</ele>
      </trkpt>
      <trkpt lat="49.08564" lon="1.66583">
        <ele>135</ele>
      </trkpt>
      <trkpt lat="49.08572" lon="1.66553">
        <ele>136</ele>
      </trkpt>
      <trkpt lat="49.08574" lon="1.66543">
        <ele>136</ele>
      </trkpt>
      <trkpt lat="49.08587" lon="1.6648">
        <ele>136</ele>
      </trkpt>
      <trkpt lat="49.08589" lon="1.66469">
        <ele>136</ele>
      </trkpt>
      <trkpt lat="49.08596" lon="1.66423">
        <ele>137</ele>
      </trkpt>
      <trkpt lat="49.08598" lon="1.6641">
        <ele>137</ele>
      </trkpt>
      <trkpt lat="49.08598" lon="1.66383">
        <ele>137</ele>
      </trkpt>
      <trkpt lat="49.08596" lon="1.66366">
        <ele>137</ele>
      </trkpt>
      <trkpt lat="49.08593" lon="1.6635">
        <ele>137</ele>
      </trkpt>
      <trkpt lat="49.08587" lon="1.66335">
        <ele>137</ele>
      </trkpt>
      <trkpt lat="49.08586" lon="1.66333">
        <ele>137</ele>
      </trkpt>
      <trkpt lat="49.08579" lon="1.66325">
        <ele>137</ele>
      </trkpt>
      <trkpt lat="49.08569" lon="1.66318">
        <ele>135</ele>
      </trkpt>
      <trkpt lat="49.08568" lon="1.66316">
        <ele>135</ele>
      </trkpt>
      <trkpt lat="49.08566" lon="1.66309">
        <ele>135</ele>
      </trkpt>
      <trkpt lat="49.08595" lon="1.66199">
        <ele>134</ele>
      </trkpt>
      <trkpt lat="49.08628" lon="1.66073">
        <ele>132</ele>
      </trkpt>
      <trkpt lat="49.08636" lon="1.66031">
        <ele>132</ele>
      </trkpt>
      <trkpt lat="49.08639" lon="1.66009">
        <ele>132</ele>
      </trkpt>
      <trkpt lat="49.08638" lon="1.65993">
        <ele>132</ele>
      </trkpt>
      <trkpt lat="49.08634" lon="1.6594">
        <ele>132</ele>
      </trkpt>
      <trkpt lat="49.08633" lon="1.65935">
        <ele>132</ele>
      </trkpt>
      <trkpt lat="49.08636" lon="1.65931">
        <ele>135.5</ele>
      </trkpt>
      <trkpt lat="49.0859" lon="1.65872">
        <ele>125.1</ele>
      </trkpt>
      <trkpt lat="49.08561" lon="1.65871">
        <ele>120.7</ele>
      </trkpt>
      <trkpt lat="49.08534" lon="1.65856">
        <ele>117.5</ele>
      </trkpt>
      <trkpt lat="49.08506" lon="1.6588">
        <ele>113.1</ele>
      </trkpt>
      <trkpt lat="49.08472" lon="1.6588">
        <ele>106.1</ele>
      </trkpt>
      <trkpt lat="49.08442" lon="1.65897">
        <ele>94.1</ele>
      </trkpt>
      <trkpt lat="49.0842" lon="1.65897">
        <ele>88.7</ele>
      </trkpt>
      <trkpt lat="49.08441" lon="1.65897">
        <ele>93.8</ele>
      </trkpt>
      <trkpt lat="49.08462" lon="1.65885">
        <ele>102.5</ele>
      </trkpt>
      <trkpt lat="49.08474" lon="1.6588">
        <ele>106.3</ele>
      </trkpt>
      <trkpt lat="49.08505" lon="1.6588">
        <ele>112.8</ele>
      </trkpt>
      <trkpt lat="49.08534" lon="1.65856">
        <ele>117.5</ele>
      </trkpt>
      <trkpt lat="49.08545" lon="1.65846">
        <ele>118.3</ele>
      </trkpt>
      <trkpt lat="49.08561" lon="1.65842">
        <ele>119.9</ele>
      </trkpt>
      <trkpt lat="49.08574" lon="1.65846">
        <ele>121.4</ele>
      </trkpt>
      <trkpt lat="49.0859" lon="1.65871">
        <ele>125</ele>
      </trkpt>
      <trkpt lat="49.08628" lon="1.65921">
        <ele>134.6</ele>
      </trkpt>
      <trkpt lat="49.08636" lon="1.65928">
        <ele>135.7</ele>
      </trkpt>
      <trkpt lat="49.0864" lon="1.65918">
        <ele>133</ele>
      </trkpt>
      <trkpt lat="49.08643" lon="1.6591">
        <ele>133</ele>
      </trkpt>
      <trkpt lat="49.08651" lon="1.65869">
        <ele>134</ele>
      </trkpt>
      <trkpt lat="49.08663" lon="1.65822">
        <ele>135</ele>
      </trkpt>
      <trkpt lat="49.08664" lon="1.65816">
        <ele>136</ele>
      </trkpt>
      <trkpt lat="49.08666" lon="1.65798">
        <ele>136</ele>
      </trkpt>
      <trkpt lat="49.08664" lon="1.65776">
        <ele>137</ele>
      </trkpt>
      <trkpt lat="49.08676" lon="1.6573">
        <ele>137</ele>
      </trkpt>
      <trkpt lat="49.08681" lon="1.6572">
        <ele>136</ele>
      </trkpt>
      <trkpt lat="49.08684" lon="1.65703">
        <ele>135</ele>
      </trkpt>
      <trkpt lat="49.0869" lon="1.65663">
        <ele>134</ele>
      </trkpt>
      <trkpt lat="49.08693" lon="1.65645">
        <ele>132</ele>
      </trkpt>
      <trkpt lat="49.08695" lon="1.65642">
        <ele>131</ele>
      </trkpt>
      <trkpt lat="49.08697" lon="1.6564">
        <ele>131</ele>
      </trkpt>
      <trkpt lat="49.08688" lon="1.65627">
        <ele>130</ele>
      </trkpt>
      <trkpt lat="49.08674" lon="1.65585">
        <ele>125</ele>
      </trkpt>
      <trkpt lat="49.0867" lon="1.65519">
        <ele>116</ele>
      </trkpt>
      <trkpt lat="49.0867" lon="1.65499">
        <ele>114</ele>
      </trkpt>
      <trkpt lat="49.08668" lon="1.65387">
        <ele>104</ele>
      </trkpt>
      <trkpt lat="49.08665" lon="1.6536">
        <ele>102</ele>
      </trkpt>
      <trkpt lat="49.08662" lon="1.6535">
        <ele>100</ele>
      </trkpt>
      <trkpt lat="49.08652" lon="1.6533">
        <ele>97</ele>
      </trkpt>
      <trkpt lat="49.08638" lon="1.65307">
        <ele>94</ele>
      </trkpt>
      <trkpt lat="49.08624" lon="1.65288">
        <ele>92</ele>
      </trkpt>
      <trkpt lat="49.08593" lon="1.65266">
        <ele>84</ele>
      </trkpt>
      <trkpt lat="49.08561" lon="1.65238">
        <ele>77</ele>
      </trkpt>
      <trkpt lat="49.08551" lon="1.65233">
        <ele>74</ele>
      </trkpt>
      <trkpt lat="49.08559" lon="1.65223">
        <ele>78</ele>
      </trkpt>
      <trkpt lat="49.08562" lon="1.65218">
        <ele>80</ele>
      </trkpt>
      <trkpt lat="49.08572" lon="1.65208">
        <ele>84</ele>
      </trkpt>
      <trkpt lat="49.08575" lon="1.65207">
        <ele>85</ele>
      </trkpt>
      <trkpt lat="49.08579" lon="1.65205">
        <ele>86</ele>
      </trkpt>
      <trkpt lat="49.08581" lon="1.65204">
        <ele>87</ele>
      </trkpt>
      <trkpt lat="49.08588" lon="1.65181">
        <ele>91</ele>
      </trkpt>
      <trkpt lat="49.08593" lon="1.65147">
        <ele>96</ele>
      </trkpt>
      <trkpt lat="49.08599" lon="1.65123">
        <ele>99</ele>
      </trkpt>
      <trkpt lat="49.08603" lon="1.65089">
        <ele>101</ele>
      </trkpt>
      <trkpt lat="49.08604" lon="1.65057">
        <ele>104</ele>
      </trkpt>
      <trkpt lat="49.08603" lon="1.6502">
        <ele>106</ele>
      </trkpt>
      <trkpt lat="49.08602" lon="1.65008">
        <ele>106</ele>
      </trkpt>
      <trkpt lat="49.08591" lon="1.64999">
        <ele>104</ele>
      </trkpt>
      <trkpt lat="49.08581" lon="1.64986">
        <ele>102</ele>
      </trkpt>
      <trkpt lat="49.08573" lon="1.64962">
        <ele>100</ele>
      </trkpt>
      <trkpt lat="49.08566" lon="1.64944">
        <ele>98</ele>
      </trkpt>
      <trkpt lat="49.08545" lon="1.64924">
        <ele>89</ele>
      </trkpt>
      <trkpt lat="49.08533" lon="1.64912">
        <ele>84</ele>
      </trkpt>
      <trkpt lat="49.08532" lon="1.6491">
        <ele>83</ele>
      </trkpt>
      <trkpt lat="49.0853" lon="1.64908">
        <ele>82</ele>
      </trkpt>
      <trkpt lat="49.08531" lon="1.64901">
        <ele>82</ele>
      </trkpt>
      <trkpt lat="49.08539" lon="1.64879">
        <ele>86</ele>
      </trkpt>
      <trkpt lat="49.08549" lon="1.64853">
        <ele>91</ele>
      </trkpt>
      <trkpt lat="49.08556" lon="1.64814">
        <ele>94</ele>
      </trkpt>
      <trkpt lat="49.08556" lon="1.64806">
        <ele>93</ele>
      </trkpt>
      <trkpt lat="49.08551" lon="1.6479">
        <ele>91</ele>
      </trkpt>
      <trkpt lat="49.08547" lon="1.64782">
        <ele>89</ele>
      </trkpt>
      <trkpt lat="49.08545" lon="1.64776">
        <ele>88</ele>
      </trkpt>
      <trkpt lat="49.08545" lon="1.64773">
        <ele>87</ele>
      </trkpt>
      <trkpt lat="49.08544" lon="1.64764">
        <ele>87</ele>
      </trkpt>
      <trkpt lat="49.08541" lon="1.64741">
        <ele>84</ele>
      </trkpt>
      <trkpt lat="49.08541" lon="1.64739">
        <ele>84</ele>
      </trkpt>
      <trkpt lat="49.08542" lon="1.64735">
        <ele>84</ele>
      </trkpt>
      <trkpt lat="49.0855" lon="1.64734">
        <ele>87</ele>
      </trkpt>
      <trkpt lat="49.08556" lon="1.64737">
        <ele>90</ele>
      </trkpt>
      <trkpt lat="49.08562" lon="1.64739">
        <ele>93</ele>
      </trkpt>
      <trkpt lat="49.08567" lon="1.64739">
        <ele>95</ele>
      </trkpt>
      <trkpt lat="49.08575" lon="1.64734">
        <ele>97</ele>
      </trkpt>
      <trkpt lat="49.08579" lon="1.64732">
        <ele>99</ele>
      </trkpt>
      <trkpt lat="49.08601" lon="1.64704">
        <ele>101</ele>
      </trkpt>
      <trkpt lat="49.08611" lon="1.64696">
        <ele>102</ele>
      </trkpt>
      <trkpt lat="49.08623" lon="1.6469">
        <ele>105</ele>
      </trkpt>
      <trkpt lat="49.08635" lon="1.6468">
        <ele>107</ele>
      </trkpt>
      <trkpt lat="49.08641" lon="1.6467">
        <ele>108</ele>
      </trkpt>
      <trkpt lat="49.08643" lon="1.64667">
        <ele>108</ele>
      </trkpt>
      <trkpt lat="49.08648" lon="1.64661">
        <ele>110</ele>
      </trkpt>
      <trkpt lat="49.08653" lon="1.64648">
        <ele>111</ele>
      </trkpt>
      <trkpt lat="49.08657" lon="1.64631">
        <ele>111</ele>
      </trkpt>
      <trkpt lat="49.08657" lon="1.64618">
        <ele>111</ele>
      </trkpt>
      <trkpt lat="49.0866" lon="1.64589">
        <ele>110</ele>
      </trkpt>
      <trkpt lat="49.08663" lon="1.64548">
        <ele>112</ele>
      </trkpt>
      <trkpt lat="49.08662" lon="1.64537">
        <ele>112</ele>
      </trkpt>
      <trkpt lat="49.08655" lon="1.64485">
        <ele>110</ele>
      </trkpt>
      <trkpt lat="49.08653" lon="1.64467">
        <ele>109</ele>
      </trkpt>
      <trkpt lat="49.08652" lon="1.64458">
        <ele>109</ele>
      </trkpt>
      <trkpt lat="49.08644" lon="1.64393">
        <ele>107</ele>
      </trkpt>
      <trkpt lat="49.08645" lon="1.64371">
        <ele>108</ele>
      </trkpt>
      <trkpt lat="49.08643" lon="1.64341">
        <ele>107</ele>
      </trkpt>
      <trkpt lat="49.08643" lon="1.64329">
        <ele>108</ele>
      </trkpt>
      <trkpt lat="49.08642" lon="1.64302">
        <ele>109</ele>
      </trkpt>
      <trkpt lat="49.08641" lon="1.64263">
        <ele>110</ele>
      </trkpt>
      <trkpt lat="49.08636" lon="1.64228">
        <ele>112</ele>
      </trkpt>
      <trkpt lat="49.08633" lon="1.64216">
        <ele>112</ele>
      </trkpt>
      <trkpt lat="49.0863" lon="1.6421">
        <ele>112</ele>
      </trkpt>
      <trkpt lat="49.08626" lon="1.64198">
        <ele>112</ele>
      </trkpt>
      <trkpt lat="49.08621" lon="1.6419">
        <ele>112</ele>
      </trkpt>
      <trkpt lat="49.08608" lon="1.64173">
        <ele>112</ele>
      </trkpt>
      <trkpt lat="49.086" lon="1.64164">
        <ele>112</ele>
      </trkpt>
      <trkpt lat="49.08581" lon="1.6414">
        <ele>110</ele>
      </trkpt>
      <trkpt lat="49.08579" lon="1.64138">
        <ele>110</ele>
      </trkpt>
      <trkpt lat="49.0857" lon="1.64131">
        <ele>107</ele>
      </trkpt>
      <trkpt lat="49.08566" lon="1.64124">
        <ele>107</ele>
      </trkpt>
      <trkpt lat="49.08565" lon="1.64091">
        <ele>109</ele>
      </trkpt>
      <trkpt lat="49.08558" lon="1.64084">
        <ele>108</ele>
      </trkpt>
      <trkpt lat="49.08538" lon="1.64058">
        <ele>100</ele>
      </trkpt>
      <trkpt lat="49.08532" lon="1.64053">
        <ele>98</ele>
      </trkpt>
      <trkpt lat="49.08527" lon="1.64048">
        <ele>97</ele>
      </trkpt>
      <trkpt lat="49.08525" lon="1.64046">
        <ele>96</ele>
      </trkpt>
      <trkpt lat="49.08515" lon="1.64043">
        <ele>92</ele>
      </trkpt>
      <trkpt lat="49.08513" lon="1.6404">
        <ele>92</ele>
      </trkpt>
      <trkpt lat="49.08514" lon="1.64037">
        <ele>92</ele>
      </trkpt>
      <trkpt lat="49.08525" lon="1.64019">
        <ele>95</ele>
      </trkpt>
      <trkpt lat="49.08535" lon="1.63997">
        <ele>98</ele>
      </trkpt>
      <trkpt lat="49.08542" lon="1.63979">
        <ele>99</ele>
      </trkpt>
      <trkpt lat="49.08548" lon="1.63962">
        <ele>100</ele>
      </trkpt>
      <trkpt lat="49.08549" lon="1.63948">
        <ele>100</ele>
      </trkpt>
      <trkpt lat="49.08549" lon="1.6394">
        <ele>100</ele>
      </trkpt>
      <trkpt lat="49.08549" lon="1.63923">
        <ele>98</ele>
      </trkpt>
      <trkpt lat="49.08548" lon="1.6391">
        <ele>98</ele>
      </trkpt>
      <trkpt lat="49.08543" lon="1.63899">
        <ele>96</ele>
      </trkpt>
      <trkpt lat="49.08537" lon="1.6389">
        <ele>94</ele>
      </trkpt>
      <trkpt lat="49.08511" lon="1.6387">
        <ele>84</ele>
      </trkpt>
      <trkpt lat="49.08506" lon="1.63864">
        <ele>82</ele>
      </trkpt>
      <trkpt lat="49.085" lon="1.63853">
        <ele>80</ele>
      </trkpt>
      <trkpt lat="49.08502" lon="1.63844">
        <ele>80</ele>
      </trkpt>
      <trkpt lat="49.08511" lon="1.63808">
        <ele>84</ele>
      </trkpt>
      <trkpt lat="49.08519" lon="1.63764">
        <ele>87</ele>
      </trkpt>
      <trkpt lat="49.08519" lon="1.63739">
        <ele>88</ele>
      </trkpt>
      <trkpt lat="49.08516" lon="1.63719">
        <ele>90</ele>
      </trkpt>
      <trkpt lat="49.08506" lon="1.637">
        <ele>90</ele>
      </trkpt>
      <trkpt lat="49.08497" lon="1.63688">
        <ele>89</ele>
      </trkpt>
      <trkpt lat="49.08479" lon="1.63672">
        <ele>86</ele>
      </trkpt>
      <trkpt lat="49.08459" lon="1.63666">
        <ele>81</ele>
      </trkpt>
      <trkpt lat="49.08443" lon="1.63667">
        <ele>76</ele>
      </trkpt>
      <trkpt lat="49.08436" lon="1.63666">
        <ele>73</ele>
      </trkpt>
      <trkpt lat="49.08428" lon="1.63663">
        <ele>72</ele>
      </trkpt>
      <trkpt lat="49.08426" lon="1.63661">
        <ele>71</ele>
      </trkpt>
      <trkpt lat="49.08425" lon="1.63659">
        <ele>71</ele>
      </trkpt>
      <trkpt lat="49.08423" lon="1.63657">
        <ele>71</ele>
      </trkpt>
      <trkpt lat="49.08422" lon="1.63655">
        <ele>71</ele>
      </trkpt>
      <trkpt lat="49.08421" lon="1.63648">
        <ele>71</ele>
      </trkpt>
      <trkpt lat="49.08422" lon="1.63623">
        <ele>75</ele>
      </trkpt>
      <trkpt lat="49.08421" lon="1.6361">
        <ele>76</ele>
      </trkpt>
      <trkpt lat="49.08418" lon="1.63595">
        <ele>77</ele>
      </trkpt>
      <trkpt lat="49.08411" lon="1.6357">
        <ele>76</ele>
      </trkpt>
      <trkpt lat="49.08407" lon="1.63526">
        <ele>75</ele>
      </trkpt>
      <trkpt lat="49.08407" lon="1.6352">
        <ele>75</ele>
      </trkpt>
      <trkpt lat="49.08408" lon="1.63512">
        <ele>75</ele>
      </trkpt>
      <trkpt lat="49.08411" lon="1.63504">
        <ele>77</ele>
      </trkpt>
      <trkpt lat="49.08441" lon="1.63453">
        <ele>82</ele>
      </trkpt>
      <trkpt lat="49.08448" lon="1.63437">
        <ele>83</ele>
      </trkpt>
      <trkpt lat="49.08451" lon="1.63418">
        <ele>82</ele>
      </trkpt>
      <trkpt lat="49.08454" lon="1.63392">
        <ele>81</ele>
      </trkpt>
      <trkpt lat="49.08453" lon="1.63364">
        <ele>79</ele>
      </trkpt>
      <trkpt lat="49.08453" lon="1.63342">
        <ele>77</ele>
      </trkpt>
      <trkpt lat="49.0845" lon="1.63302">
        <ele>78</ele>
      </trkpt>
      <trkpt lat="49.0845" lon="1.63274">
        <ele>81</ele>
      </trkpt>
      <trkpt lat="49.08451" lon="1.63269">
        <ele>82</ele>
      </trkpt>
      <trkpt lat="49.08451" lon="1.63267">
        <ele>82</ele>
      </trkpt>
      <trkpt lat="49.08439" lon="1.63255">
        <ele>72.6</ele>
      </trkpt>
      <trkpt lat="49.08423" lon="1.63243">
        <ele>71.2</ele>
      </trkpt>
      <trkpt lat="49.08391" lon="1.63239">
        <ele>65.7</ele>
      </trkpt>
      <trkpt lat="49.08367" lon="1.63253">
        <ele>58.6</ele>
      </trkpt>
      <trkpt lat="49.08314" lon="1.63284">
        <ele>45.6</ele>
      </trkpt>
      <trkpt lat="49.08291" lon="1.63271">
        <ele>41.9</ele>
      </trkpt>
      <trkpt lat="49.08241" lon="1.63151">
        <ele>28.5</ele>
      </trkpt>
      <trkpt lat="49.08203" lon="1.63087">
        <ele>23.5</ele>
      </trkpt>
      <trkpt lat="49.08147" lon="1.63056">
        <ele>20.3</ele>
      </trkpt>
      <trkpt lat="49.08102" lon="1.6295">
        <ele>20.3</ele>
      </trkpt>
      <trkpt lat="49.08096" lon="1.62929">
        <ele>20.5</ele>
      </trkpt>
      <trkpt lat="49.08094" lon="1.62968">
        <ele>20</ele>
      </trkpt>
      <trkpt lat="49.08016" lon="1.63105">
        <ele>18.5</ele>
      </trkpt>
      <trkpt lat="49.08004" lon="1.63144">
        <ele>17.9</ele>
      </trkpt>
    </trkseg>
  </trk>
</gpx>